<?xml version='1.0' encoding='UTF-8'?><gpx version="1.1" creator="JPX - https://github.com/jenetics/jpx" xmlns="http://www.topografix.com/GPX/1/1"><trk><trkseg><trkpt lat="45.57081" lon="8.647295"><ele>194.00000000000003</ele><time>2026-04-11T08:45:27.389Z</time></trkpt><trkpt lat="45.57082" lon="8.647385"><ele>194.0</ele><time>2026-04-11T08:45:31.386Z</time></trkpt><trkpt lat="45.570835" lon="8.6475017"><ele>194.0</ele><time>2026-04-11T08:45:35.386Z</time></trkpt><trkpt lat="45.5708583" lon="8.647615"><ele>194.0</ele><time>2026-04-11T08:45:38.388Z</time></trkpt><trkpt lat="45.5708733" lon="8.64774"><ele>194.00000000000003</ele><time>2026-04-11T08:45:41.385Z</time></trkpt><trkpt lat="45.5708883" lon="8.6478633"><ele>194.0</ele><time>2026-04-11T08:45:43.387Z</time></trkpt><trkpt lat="45.5709033" lon="8.6479867"><ele>194.00000000000003</ele><time>2026-04-11T08:45:45.39Z</time></trkpt><trkpt lat="45.5709183" lon="8.6481"><ele>194.0</ele><time>2026-04-11T08:45:47.388Z</time></trkpt><trkpt lat="45.57093" lon="8.6482"><ele>194.0</ele><time>2026-04-11T08:45:49.389Z</time></trkpt><trkpt lat="45.5709483" lon="8.6483133"><ele>194.0</ele><time>2026-04-11T08:45:54.386Z</time></trkpt><trkpt lat="45.5709867" lon="8.64843"><ele>194.00000000000003</ele><time>2026-04-11T08:45:57.382Z</time></trkpt><trkpt lat="45.5709967" lon="8.64858"><ele>194.0</ele><time>2026-04-11T08:45:59.389Z</time></trkpt><trkpt lat="45.571005" lon="8.6487083"><ele>194.00000000000003</ele><time>2026-04-11T08:46:01.387Z</time></trkpt><trkpt lat="45.5710183" lon="8.6488267"><ele>194.0</ele><time>2026-04-11T08:46:03.387Z</time></trkpt><trkpt lat="45.571025" lon="8.6489617"><ele>194.0</ele><time>2026-04-11T08:46:05.392Z</time></trkpt><trkpt lat="45.57103" lon="8.6490817"><ele>194.0</ele><time>2026-04-11T08:46:07.386Z</time></trkpt><trkpt lat="45.5710417" lon="8.6492017"><ele>194.00000000000003</ele><time>2026-04-11T08:46:09.39Z</time></trkpt><trkpt lat="45.5710517" lon="8.6492967"><ele>194.0</ele><time>2026-04-11T08:46:11.388Z</time></trkpt><trkpt lat="45.5710633" lon="8.6493933"><ele>193.83333333333334</ele><time>2026-04-11T08:46:12.389Z</time></trkpt><trkpt lat="45.5710683" lon="8.6495467"><ele>193.66666666666669</ele><time>2026-04-11T08:46:14.388Z</time></trkpt><trkpt lat="45.5710667" lon="8.6496883"><ele>193.5</ele><time>2026-04-11T08:46:16.387Z</time></trkpt><trkpt lat="45.5710683" lon="8.6497917"><ele>193.33333333333331</ele><time>2026-04-11T08:46:18.387Z</time></trkpt><trkpt lat="45.5710733" lon="8.64989"><ele>193.16666666666666</ele><time>2026-04-11T08:46:20.388Z</time></trkpt><trkpt lat="45.5710767" lon="8.650015"><ele>193.0</ele><time>2026-04-11T08:46:22.387Z</time></trkpt><trkpt lat="45.5710867" lon="8.6501367"><ele>192.99999999999997</ele><time>2026-04-11T08:46:24.388Z</time></trkpt><trkpt lat="45.571095" lon="8.6502617"><ele>193.0</ele><time>2026-04-11T08:46:26.388Z</time></trkpt><trkpt lat="45.571095" lon="8.650375"><ele>193.0</ele><time>2026-04-11T08:46:28.384Z</time></trkpt><trkpt lat="45.5711033" lon="8.6505017"><ele>193.0</ele><time>2026-04-11T08:46:30.39Z</time></trkpt><trkpt lat="45.5711167" lon="8.6506417"><ele>192.99999999999997</ele><time>2026-04-11T08:46:32.387Z</time></trkpt><trkpt lat="45.571125" lon="8.650765"><ele>193.0</ele><time>2026-04-11T08:46:34.388Z</time></trkpt><trkpt lat="45.5711267" lon="8.65086"><ele>192.99999999999997</ele><time>2026-04-11T08:46:36.384Z</time></trkpt><trkpt lat="45.5711283" lon="8.6509533"><ele>193.0</ele><time>2026-04-11T08:46:39.388Z</time></trkpt><trkpt lat="45.57116" lon="8.6510317"><ele>193.0</ele><time>2026-04-11T08:46:42.389Z</time></trkpt><trkpt lat="45.5711967" lon="8.65114"><ele>193.0</ele><time>2026-04-11T08:46:44.391Z</time></trkpt><trkpt lat="45.57124" lon="8.6512417"><ele>192.99999999999997</ele><time>2026-04-11T08:46:47.39Z</time></trkpt><trkpt lat="45.5713267" lon="8.6512817"><ele>193.0</ele><time>2026-04-11T08:46:50.392Z</time></trkpt><trkpt lat="45.571395" lon="8.6513183"><ele>193.16666666666666</ele><time>2026-04-11T08:46:52.388Z</time></trkpt><trkpt lat="45.5714617" lon="8.65134"><ele>193.33333333333331</ele><time>2026-04-11T08:46:54.387Z</time></trkpt><trkpt lat="45.5715317" lon="8.651335"><ele>193.5</ele><time>2026-04-11T08:46:56.392Z</time></trkpt><trkpt lat="45.5716267" lon="8.6513367"><ele>193.66666666666669</ele><time>2026-04-11T08:46:58.39Z</time></trkpt><trkpt lat="45.57172" lon="8.65135"><ele>193.83333333333334</ele><time>2026-04-11T08:47:00.391Z</time></trkpt><trkpt lat="45.5718067" lon="8.6513667"><ele>194.0</ele><time>2026-04-11T08:47:02.391Z</time></trkpt><trkpt lat="45.5718967" lon="8.6513817"><ele>194.00000000000003</ele><time>2026-04-11T08:47:04.382Z</time></trkpt><trkpt lat="45.5719883" lon="8.6514017"><ele>194.0</ele><time>2026-04-11T08:47:06.387Z</time></trkpt><trkpt lat="45.5720467" lon="8.65145"><ele>194.0</ele><time>2026-04-11T08:47:09.381Z</time></trkpt><trkpt lat="45.5720417" lon="8.6515483"><ele>194.0</ele><time>2026-04-11T08:47:11.386Z</time></trkpt><trkpt lat="45.5720183" lon="8.6516667"><ele>194.00000000000003</ele><time>2026-04-11T08:47:13.387Z</time></trkpt><trkpt lat="45.5719983" lon="8.65178"><ele>194.0</ele><time>2026-04-11T08:47:15.387Z</time></trkpt><trkpt lat="45.571975" lon="8.651895"><ele>194.16666666666669</ele><time>2026-04-11T08:47:17.387Z</time></trkpt><trkpt lat="45.57195" lon="8.652015"><ele>194.33333333333334</ele><time>2026-04-11T08:47:19.39Z</time></trkpt><trkpt lat="45.5719283" lon="8.6521233"><ele>194.5</ele><time>2026-04-11T08:47:21.388Z</time></trkpt><trkpt lat="45.5719083" lon="8.6522417"><ele>194.66666666666669</ele><time>2026-04-11T08:47:23.394Z</time></trkpt><trkpt lat="45.571885" lon="8.652375"><ele>194.83333333333334</ele><time>2026-04-11T08:47:25.386Z</time></trkpt><trkpt lat="45.57187" lon="8.6525117"><ele>195.0</ele><time>2026-04-11T08:47:27.386Z</time></trkpt><trkpt lat="45.5718483" lon="8.6526133"><ele>195.0</ele><time>2026-04-11T08:47:29.388Z</time></trkpt><trkpt lat="45.5718283" lon="8.65271"><ele>195.0</ele><time>2026-04-11T08:47:31.385Z</time></trkpt><trkpt lat="45.5718083" lon="8.652815"><ele>195.0</ele><time>2026-04-11T08:47:33.385Z</time></trkpt><trkpt lat="45.5717883" lon="8.6529233"><ele>195.0</ele><time>2026-04-11T08:47:35.386Z</time></trkpt><trkpt lat="45.57177" lon="8.6530267"><ele>195.0</ele><time>2026-04-11T08:47:37.387Z</time></trkpt><trkpt lat="45.57175" lon="8.6531217"><ele>195.0</ele><time>2026-04-11T08:47:39.386Z</time></trkpt><trkpt lat="45.57173" lon="8.6532233"><ele>195.0</ele><time>2026-04-11T08:47:41.386Z</time></trkpt><trkpt lat="45.5717083" lon="8.6533233"><ele>194.83333333333334</ele><time>2026-04-11T08:47:43.383Z</time></trkpt><trkpt lat="45.5716917" lon="8.6534167"><ele>194.66666666666669</ele><time>2026-04-11T08:47:45.386Z</time></trkpt><trkpt lat="45.5716733" lon="8.6535183"><ele>194.5</ele><time>2026-04-11T08:47:47.387Z</time></trkpt><trkpt lat="45.5716567" lon="8.6536133"><ele>194.33333333333334</ele><time>2026-04-11T08:47:49.388Z</time></trkpt><trkpt lat="45.571645" lon="8.6537317"><ele>194.16666666666669</ele><time>2026-04-11T08:47:51.379Z</time></trkpt><trkpt lat="45.5716567" lon="8.6538633"><ele>194.0</ele><time>2026-04-11T08:47:53.387Z</time></trkpt><trkpt lat="45.571675" lon="8.6539783"><ele>193.79999999999998</ele><time>2026-04-11T08:47:55.386Z</time></trkpt><trkpt lat="45.571705" lon="8.6541167"><ele>193.6</ele><time>2026-04-11T08:47:57.387Z</time></trkpt><trkpt lat="45.5717367" lon="8.65426"><ele>193.4</ele><time>2026-04-11T08:47:59.388Z</time></trkpt><trkpt lat="45.5717617" lon="8.65439"><ele>193.2</ele><time>2026-04-11T08:48:01.388Z</time></trkpt><trkpt lat="45.5717783" lon="8.6545233"><ele>193.0</ele><time>2026-04-11T08:48:03.387Z</time></trkpt><trkpt lat="45.5717983" lon="8.6546567"><ele>192.60000000000002</ele><time>2026-04-11T08:48:05.388Z</time></trkpt><trkpt lat="45.5718167" lon="8.6547933"><ele>192.20000000000002</ele><time>2026-04-11T08:48:07.386Z</time></trkpt><trkpt lat="45.5718283" lon="8.6549183"><ele>191.8</ele><time>2026-04-11T08:48:09.387Z</time></trkpt><trkpt lat="45.5718483" lon="8.6550617"><ele>191.4</ele><time>2026-04-11T08:48:11.385Z</time></trkpt><trkpt lat="45.571865" lon="8.6551817"><ele>191.0</ele><time>2026-04-11T08:48:13.387Z</time></trkpt><trkpt lat="45.5718717" lon="8.6553083"><ele>190.83333333333331</ele><time>2026-04-11T08:48:15.387Z</time></trkpt><trkpt lat="45.5718767" lon="8.6554333"><ele>190.66666666666666</ele><time>2026-04-11T08:48:17.39Z</time></trkpt><trkpt lat="45.5718817" lon="8.6555533"><ele>190.5</ele><time>2026-04-11T08:48:19.387Z</time></trkpt><trkpt lat="45.5718867" lon="8.6556633"><ele>190.33333333333334</ele><time>2026-04-11T08:48:21.387Z</time></trkpt><trkpt lat="45.5718983" lon="8.6557633"><ele>190.16666666666669</ele><time>2026-04-11T08:48:23.383Z</time></trkpt><trkpt lat="45.5719133" lon="8.6558617"><ele>190.0</ele><time>2026-04-11T08:48:25.386Z</time></trkpt><trkpt lat="45.5719383" lon="8.6559633"><ele>190.0</ele><time>2026-04-11T08:48:27.388Z</time></trkpt><trkpt lat="45.571965" lon="8.65607"><ele>190.0</ele><time>2026-04-11T08:48:29.388Z</time></trkpt><trkpt lat="45.5719933" lon="8.6561817"><ele>190.0</ele><time>2026-04-11T08:48:31.385Z</time></trkpt><trkpt lat="45.572015" lon="8.6562833"><ele>190.0</ele><time>2026-04-11T08:48:33.388Z</time></trkpt><trkpt lat="45.5720367" lon="8.6563883"><ele>190.0</ele><time>2026-04-11T08:48:35.387Z</time></trkpt><trkpt lat="45.5720567" lon="8.6564967"><ele>190.0</ele><time>2026-04-11T08:48:37.387Z</time></trkpt><trkpt lat="45.5720717" lon="8.6565867"><ele>190.0</ele><time>2026-04-11T08:48:39.387Z</time></trkpt><trkpt lat="45.5721067" lon="8.6567183"><ele>190.0</ele><time>2026-04-11T08:48:42.387Z</time></trkpt><trkpt lat="45.5721317" lon="8.65683"><ele>190.0</ele><time>2026-04-11T08:48:44.389Z</time></trkpt><trkpt lat="45.5721517" lon="8.6569317"><ele>190.0</ele><time>2026-04-11T08:48:46.389Z</time></trkpt><trkpt lat="45.572175" lon="8.65704"><ele>190.0</ele><time>2026-04-11T08:48:48.387Z</time></trkpt><trkpt lat="45.5722033" lon="8.6571617"><ele>190.0</ele><time>2026-04-11T08:48:50.389Z</time></trkpt><trkpt lat="45.57223" lon="8.6572733"><ele>190.33333333333334</ele><time>2026-04-11T08:48:52.387Z</time></trkpt><trkpt lat="45.572255" lon="8.657375"><ele>190.66666666666669</ele><time>2026-04-11T08:48:54.388Z</time></trkpt><trkpt lat="45.5722817" lon="8.6574833"><ele>191.0</ele><time>2026-04-11T08:48:56.388Z</time></trkpt><trkpt lat="45.5723083" lon="8.6575917"><ele>191.33333333333334</ele><time>2026-04-11T08:48:58.379Z</time></trkpt><trkpt lat="45.5723383" lon="8.6577"><ele>191.66666666666666</ele><time>2026-04-11T08:49:00.387Z</time></trkpt><trkpt lat="45.5723667" lon="8.65781"><ele>192.0</ele><time>2026-04-11T08:49:02.39Z</time></trkpt><trkpt lat="45.5723867" lon="8.6579167"><ele>192.0</ele><time>2026-04-11T08:49:04.39Z</time></trkpt><trkpt lat="45.5724083" lon="8.6580367"><ele>192.0</ele><time>2026-04-11T08:49:06.39Z</time></trkpt><trkpt lat="45.5724333" lon="8.65817"><ele>192.0</ele><time>2026-04-11T08:49:08.388Z</time></trkpt><trkpt lat="45.572455" lon="8.6583067"><ele>192.0</ele><time>2026-04-11T08:49:10.389Z</time></trkpt><trkpt lat="45.57247" lon="8.6584367"><ele>192.0</ele><time>2026-04-11T08:49:12.388Z</time></trkpt><trkpt lat="45.5724867" lon="8.658555"><ele>191.8</ele><time>2026-04-11T08:49:14.382Z</time></trkpt><trkpt lat="45.572505" lon="8.658685"><ele>191.6</ele><time>2026-04-11T08:49:16.389Z</time></trkpt><trkpt lat="45.5725233" lon="8.658815"><ele>191.4</ele><time>2026-04-11T08:49:18.389Z</time></trkpt><trkpt lat="45.5725367" lon="8.6589433"><ele>191.20000000000002</ele><time>2026-04-11T08:49:20.392Z</time></trkpt><trkpt lat="45.572555" lon="8.6590817"><ele>191.0</ele><time>2026-04-11T08:49:22.388Z</time></trkpt><trkpt lat="45.572575" lon="8.6592167"><ele>191.0</ele><time>2026-04-11T08:49:24.388Z</time></trkpt><trkpt lat="45.5725933" lon="8.6593567"><ele>191.0</ele><time>2026-04-11T08:49:26.386Z</time></trkpt><trkpt lat="45.572615" lon="8.659495"><ele>191.0</ele><time>2026-04-11T08:49:28.385Z</time></trkpt><trkpt lat="45.5726367" lon="8.6596267"><ele>191.0</ele><time>2026-04-11T08:49:30.385Z</time></trkpt><trkpt lat="45.5726633" lon="8.6597483"><ele>191.0</ele><time>2026-04-11T08:49:32.387Z</time></trkpt><trkpt lat="45.5726933" lon="8.6598617"><ele>191.0</ele><time>2026-04-11T08:49:34.385Z</time></trkpt><trkpt lat="45.5727217" lon="8.6599733"><ele>191.0</ele><time>2026-04-11T08:49:36.388Z</time></trkpt><trkpt lat="45.5727467" lon="8.6600817"><ele>191.0</ele><time>2026-04-11T08:49:38.388Z</time></trkpt><trkpt lat="45.5727733" lon="8.66019"><ele>191.0</ele><time>2026-04-11T08:49:40.389Z</time></trkpt><trkpt lat="45.5728017" lon="8.660305"><ele>191.0</ele><time>2026-04-11T08:49:42.391Z</time></trkpt><trkpt lat="45.5728283" lon="8.660415"><ele>191.0</ele><time>2026-04-11T08:49:44.393Z</time></trkpt><trkpt lat="45.5728583" lon="8.66054"><ele>191.0</ele><time>2026-04-11T08:49:46.388Z</time></trkpt><trkpt lat="45.5728867" lon="8.6606417"><ele>191.0</ele><time>2026-04-11T08:49:48.386Z</time></trkpt><trkpt lat="45.572915" lon="8.6607433"><ele>191.0</ele><time>2026-04-11T08:49:50.384Z</time></trkpt><trkpt lat="45.572945" lon="8.6608583"><ele>191.0</ele><time>2026-04-11T08:49:52.386Z</time></trkpt><trkpt lat="45.572975" lon="8.6609617"><ele>191.0</ele><time>2026-04-11T08:49:54.386Z</time></trkpt><trkpt lat="45.5730033" lon="8.6610583"><ele>191.0</ele><time>2026-04-11T08:49:56.386Z</time></trkpt><trkpt lat="45.57303" lon="8.66115"><ele>191.0</ele><time>2026-04-11T08:49:58.384Z</time></trkpt><trkpt lat="45.573055" lon="8.66124"><ele>191.0</ele><time>2026-04-11T08:50:00.384Z</time></trkpt><trkpt lat="45.57308" lon="8.6613283"><ele>191.0</ele><time>2026-04-11T08:50:02.388Z</time></trkpt><trkpt lat="45.5731083" lon="8.661425"><ele>191.0</ele><time>2026-04-11T08:50:04.383Z</time></trkpt><trkpt lat="45.5731383" lon="8.6615267"><ele>191.0</ele><time>2026-04-11T08:50:06.386Z</time></trkpt><trkpt lat="45.57317" lon="8.6616283"><ele>191.0</ele><time>2026-04-11T08:50:08.388Z</time></trkpt><trkpt lat="45.5732033" lon="8.661725"><ele>191.0</ele><time>2026-04-11T08:50:10.385Z</time></trkpt><trkpt lat="45.57323" lon="8.6618083"><ele>191.0</ele><time>2026-04-11T08:50:12.388Z</time></trkpt><trkpt lat="45.573255" lon="8.6619017"><ele>191.0</ele><time>2026-04-11T08:50:14.389Z</time></trkpt><trkpt lat="45.5732833" lon="8.66201"><ele>191.0</ele><time>2026-04-11T08:50:16.385Z</time></trkpt><trkpt lat="45.573305" lon="8.662115"><ele>191.0</ele><time>2026-04-11T08:50:18.389Z</time></trkpt><trkpt lat="45.5733283" lon="8.6622167"><ele>191.0</ele><time>2026-04-11T08:50:20.389Z</time></trkpt><trkpt lat="45.57335" lon="8.662305"><ele>191.0</ele><time>2026-04-11T08:50:22.385Z</time></trkpt><trkpt lat="45.5733767" lon="8.6624083"><ele>191.0</ele><time>2026-04-11T08:50:24.388Z</time></trkpt><trkpt lat="45.5734017" lon="8.662515"><ele>190.85714285714286</ele><time>2026-04-11T08:50:26.384Z</time></trkpt><trkpt lat="45.5734267" lon="8.6626167"><ele>190.7142857142857</ele><time>2026-04-11T08:50:28.383Z</time></trkpt><trkpt lat="45.5734533" lon="8.6627217"><ele>190.57142857142856</ele><time>2026-04-11T08:50:30.385Z</time></trkpt><trkpt lat="45.57348" lon="8.66282"><ele>190.42857142857144</ele><time>2026-04-11T08:50:32.385Z</time></trkpt><trkpt lat="45.5735067" lon="8.6629117"><ele>190.28571428571428</ele><time>2026-04-11T08:50:34.381Z</time></trkpt><trkpt lat="45.5735317" lon="8.6629983"><ele>190.14285714285714</ele><time>2026-04-11T08:50:36.385Z</time></trkpt><trkpt lat="45.5735583" lon="8.6630867"><ele>190.0</ele><time>2026-04-11T08:50:38.387Z</time></trkpt><trkpt lat="45.573585" lon="8.6631767"><ele>190.0</ele><time>2026-04-11T08:50:40.39Z</time></trkpt><trkpt lat="45.57361" lon="8.663275"><ele>190.0</ele><time>2026-04-11T08:50:42.387Z</time></trkpt><trkpt lat="45.573635" lon="8.66337"><ele>190.0</ele><time>2026-04-11T08:50:44.387Z</time></trkpt><trkpt lat="45.573655" lon="8.6634667"><ele>190.0</ele><time>2026-04-11T08:50:46.385Z</time></trkpt><trkpt lat="45.573675" lon="8.663565"><ele>190.0</ele><time>2026-04-11T08:50:48.385Z</time></trkpt><trkpt lat="45.573695" lon="8.6636567"><ele>190.0</ele><time>2026-04-11T08:50:50.386Z</time></trkpt><trkpt lat="45.5737183" lon="8.6637467"><ele>190.0</ele><time>2026-04-11T08:50:52.385Z</time></trkpt><trkpt lat="45.57374" lon="8.66384"><ele>190.16666666666669</ele><time>2026-04-11T08:50:54.386Z</time></trkpt><trkpt lat="45.573755" lon="8.663935"><ele>190.33333333333334</ele><time>2026-04-11T08:50:56.386Z</time></trkpt><trkpt lat="45.573775" lon="8.664065"><ele>190.5</ele><time>2026-04-11T08:50:59.388Z</time></trkpt><trkpt lat="45.5737933" lon="8.6641783"><ele>190.66666666666666</ele><time>2026-04-11T08:51:02.389Z</time></trkpt><trkpt lat="45.5738283" lon="8.6643183"><ele>190.83333333333331</ele><time>2026-04-11T08:51:05.379Z</time></trkpt><trkpt lat="45.5738533" lon="8.6644233"><ele>191.0</ele><time>2026-04-11T08:51:07.386Z</time></trkpt><trkpt lat="45.573875" lon="8.6645267"><ele>191.0</ele><time>2026-04-11T08:51:09.382Z</time></trkpt><trkpt lat="45.573895" lon="8.66463"><ele>191.0</ele><time>2026-04-11T08:51:11.383Z</time></trkpt><trkpt lat="45.573915" lon="8.66473"><ele>191.0</ele><time>2026-04-11T08:51:13.382Z</time></trkpt><trkpt lat="45.573935" lon="8.6648267"><ele>191.0</ele><time>2026-04-11T08:51:15.379Z</time></trkpt><trkpt lat="45.573955" lon="8.664925"><ele>191.0</ele><time>2026-04-11T08:51:17.387Z</time></trkpt><trkpt lat="45.573975" lon="8.6650317"><ele>191.0</ele><time>2026-04-11T08:51:19.387Z</time></trkpt><trkpt lat="45.573995" lon="8.665125"><ele>191.0</ele><time>2026-04-11T08:51:21.385Z</time></trkpt><trkpt lat="45.5740183" lon="8.6652167"><ele>191.42857142857144</ele><time>2026-04-11T08:51:23.388Z</time></trkpt><trkpt lat="45.574045" lon="8.6653233"><ele>191.85714285714283</ele><time>2026-04-11T08:51:25.389Z</time></trkpt><trkpt lat="45.5740683" lon="8.66543"><ele>192.28571428571428</ele><time>2026-04-11T08:51:27.389Z</time></trkpt><trkpt lat="45.574085" lon="8.6655267"><ele>192.71428571428572</ele><time>2026-04-11T08:51:29.385Z</time></trkpt><trkpt lat="45.5741067" lon="8.6656267"><ele>193.14285714285717</ele><time>2026-04-11T08:51:31.385Z</time></trkpt><trkpt lat="45.5741233" lon="8.6657217"><ele>193.57142857142856</ele><time>2026-04-11T08:51:33.386Z</time></trkpt><trkpt lat="45.57414" lon="8.6658233"><ele>194.0</ele><time>2026-04-11T08:51:35.385Z</time></trkpt><trkpt lat="45.5741583" lon="8.6659217"><ele>194.0</ele><time>2026-04-11T08:51:37.386Z</time></trkpt><trkpt lat="45.5741767" lon="8.6660217"><ele>194.0</ele><time>2026-04-11T08:51:39.384Z</time></trkpt><trkpt lat="45.5741967" lon="8.6661117"><ele>194.0</ele><time>2026-04-11T08:51:41.385Z</time></trkpt><trkpt lat="45.574215" lon="8.6662033"><ele>194.0</ele><time>2026-04-11T08:51:43.386Z</time></trkpt><trkpt lat="45.5742333" lon="8.6662967"><ele>194.0</ele><time>2026-04-11T08:51:45.385Z</time></trkpt><trkpt lat="45.5742533" lon="8.6663983"><ele>194.0</ele><time>2026-04-11T08:51:47.387Z</time></trkpt><trkpt lat="45.5742717" lon="8.6664967"><ele>194.0</ele><time>2026-04-11T08:51:49.386Z</time></trkpt><trkpt lat="45.5743" lon="8.6666033"><ele>194.66666666666669</ele><time>2026-04-11T08:51:52.385Z</time></trkpt><trkpt lat="45.57433" lon="8.6666883"><ele>195.33333333333334</ele><time>2026-04-11T08:51:55.387Z</time></trkpt><trkpt lat="45.5743317" lon="8.66678"><ele>196.0</ele><time>2026-04-11T08:52:00.386Z</time></trkpt><trkpt lat="45.5743383" lon="8.666875"><ele>196.66666666666669</ele><time>2026-04-11T08:52:05.385Z</time></trkpt><trkpt lat="45.5743517" lon="8.6669817"><ele>197.33333333333334</ele><time>2026-04-11T08:52:08.387Z</time></trkpt><trkpt lat="45.5743533" lon="8.6670883"><ele>198.0</ele><time>2026-04-11T08:52:10.388Z</time></trkpt><trkpt lat="45.574375" lon="8.6672317"><ele>198.0</ele><time>2026-04-11T08:52:12.388Z</time></trkpt><trkpt lat="45.574405" lon="8.6674017"><ele>198.0</ele><time>2026-04-11T08:52:14.386Z</time></trkpt><trkpt lat="45.5744317" lon="8.6675633"><ele>198.0</ele><time>2026-04-11T08:52:16.386Z</time></trkpt><trkpt lat="45.57445" lon="8.667705"><ele>198.0</ele><time>2026-04-11T08:52:18.39Z</time></trkpt><trkpt lat="45.5744767" lon="8.66784"><ele>198.0</ele><time>2026-04-11T08:52:20.389Z</time></trkpt><trkpt lat="45.5744967" lon="8.66797"><ele>197.8</ele><time>2026-04-11T08:52:22.385Z</time></trkpt><trkpt lat="45.5745133" lon="8.6681217"><ele>197.60000000000002</ele><time>2026-04-11T08:52:24.388Z</time></trkpt><trkpt lat="45.574515" lon="8.6682317"><ele>197.39999999999998</ele><time>2026-04-11T08:52:26.386Z</time></trkpt><trkpt lat="45.5745117" lon="8.6683617"><ele>197.2</ele><time>2026-04-11T08:52:29.387Z</time></trkpt><trkpt lat="45.5744867" lon="8.6684733"><ele>197.0</ele><time>2026-04-11T08:52:32.387Z</time></trkpt><trkpt lat="45.5744833" lon="8.6686233"><ele>197.0</ele><time>2026-04-11T08:52:35.387Z</time></trkpt><trkpt lat="45.5745117" lon="8.6687217"><ele>197.0</ele><time>2026-04-11T08:52:37.385Z</time></trkpt><trkpt lat="45.5745533" lon="8.66888"><ele>197.0</ele><time>2026-04-11T08:52:39.386Z</time></trkpt><trkpt lat="45.5745667" lon="8.668995"><ele>197.0</ele><time>2026-04-11T08:52:41.389Z</time></trkpt><trkpt lat="45.5745767" lon="8.6691067"><ele>197.0</ele><time>2026-04-11T08:52:42.389Z</time></trkpt><trkpt lat="45.5746183" lon="8.6692417"><ele>197.14285714285714</ele><time>2026-04-11T08:52:44.39Z</time></trkpt><trkpt lat="45.5746633" lon="8.669315"><ele>197.28571428571428</ele><time>2026-04-11T08:52:52.379Z</time></trkpt><trkpt lat="45.574735" lon="8.6693033"><ele>197.42857142857144</ele><time>2026-04-11T08:52:57.385Z</time></trkpt><trkpt lat="45.5747967" lon="8.6692783"><ele>197.57142857142856</ele><time>2026-04-11T08:53:00.389Z</time></trkpt><trkpt lat="45.57486" lon="8.669255"><ele>197.7142857142857</ele><time>2026-04-11T08:53:04.386Z</time></trkpt><trkpt lat="45.5749367" lon="8.6692483"><ele>197.85714285714286</ele><time>2026-04-11T08:53:11.388Z</time></trkpt><trkpt lat="45.5750017" lon="8.6692817"><ele>198.0</ele><time>2026-04-11T08:53:18.388Z</time></trkpt><trkpt lat="45.57505" lon="8.66935"><ele>198.0</ele><time>2026-04-11T08:53:23.389Z</time></trkpt><trkpt lat="45.5751167" lon="8.6694033"><ele>198.0</ele><time>2026-04-11T08:53:27.389Z</time></trkpt><trkpt lat="45.5752683" lon="8.6696233"><ele>198.0</ele><time>2026-04-11T08:53:28.389Z</time></trkpt><trkpt lat="45.57533" lon="8.669585"><ele>198.0</ele><time>2026-04-11T08:53:31.389Z</time></trkpt><trkpt lat="45.5753383" lon="8.6694817"><ele>198.0</ele><time>2026-04-11T08:53:39.388Z</time></trkpt><trkpt lat="45.5752917" lon="8.6693833"><ele>198.0</ele><time>2026-04-11T08:53:43.386Z</time></trkpt><trkpt lat="45.57522" lon="8.6692717"><ele>198.0</ele><time>2026-04-11T08:53:45.39Z</time></trkpt><trkpt lat="45.5751783" lon="8.669185"><ele>198.0</ele><time>2026-04-11T08:53:47.387Z</time></trkpt><trkpt lat="45.57512" lon="8.6691017"><ele>198.0</ele><time>2026-04-11T08:53:49.386Z</time></trkpt><trkpt lat="45.5750483" lon="8.6690583"><ele>198.0</ele><time>2026-04-11T08:53:52.387Z</time></trkpt><trkpt lat="45.57497" lon="8.6690933"><ele>198.0</ele><time>2026-04-11T08:53:54.389Z</time></trkpt><trkpt lat="45.5748767" lon="8.6691233"><ele>198.0</ele><time>2026-04-11T08:53:56.388Z</time></trkpt><trkpt lat="45.574805" lon="8.66915"><ele>198.0</ele><time>2026-04-11T08:53:59.39Z</time></trkpt><trkpt lat="45.574725" lon="8.669205"><ele>198.0</ele><time>2026-04-11T08:54:01.387Z</time></trkpt><trkpt lat="45.5746733" lon="8.6692633"><ele>198.0</ele><time>2026-04-11T08:54:03.387Z</time></trkpt><trkpt lat="45.5746133" lon="8.669345"><ele>198.0</ele><time>2026-04-11T08:54:05.387Z</time></trkpt><trkpt lat="45.5745467" lon="8.669425"><ele>198.0</ele><time>2026-04-11T08:54:08.388Z</time></trkpt><trkpt lat="45.5744917" lon="8.6694733"><ele>197.2</ele><time>2026-04-11T08:54:11.387Z</time></trkpt><trkpt lat="45.574425" lon="8.6695033"><ele>196.4</ele><time>2026-04-11T08:54:22.39Z</time></trkpt><trkpt lat="45.5743617" lon="8.6695283"><ele>195.6</ele><time>2026-04-11T08:54:25.384Z</time></trkpt><trkpt lat="45.5742817" lon="8.6695467"><ele>194.79999999999998</ele><time>2026-04-11T08:54:28.385Z</time></trkpt><trkpt lat="45.5742133" lon="8.669555"><ele>194.0</ele><time>2026-04-11T08:54:32.388Z</time></trkpt><trkpt lat="45.574025" lon="8.6695633"><ele>194.0</ele><time>2026-04-11T08:54:35.387Z</time></trkpt><trkpt lat="45.5739217" lon="8.66957"><ele>194.0</ele><time>2026-04-11T08:54:38.387Z</time></trkpt><trkpt lat="45.57384" lon="8.6695783"><ele>194.0</ele><time>2026-04-11T08:54:40.379Z</time></trkpt><trkpt lat="45.5737517" lon="8.6695933"><ele>194.0</ele><time>2026-04-11T08:54:43.38Z</time></trkpt><trkpt lat="45.5736083" lon="8.6696233"><ele>194.0</ele><time>2026-04-11T08:54:45.387Z</time></trkpt><trkpt lat="45.573515" lon="8.6696533"><ele>193.83333333333334</ele><time>2026-04-11T08:54:47.389Z</time></trkpt><trkpt lat="45.573405" lon="8.6696667"><ele>193.66666666666669</ele><time>2026-04-11T08:54:49.388Z</time></trkpt><trkpt lat="45.5733083" lon="8.6696933"><ele>193.5</ele><time>2026-04-11T08:54:51.389Z</time></trkpt><trkpt lat="45.573235" lon="8.6697183"><ele>193.33333333333331</ele><time>2026-04-11T08:54:53.387Z</time></trkpt><trkpt lat="45.5731717" lon="8.669725"><ele>193.16666666666666</ele><time>2026-04-11T08:54:55.388Z</time></trkpt><trkpt lat="45.5730933" lon="8.669735"><ele>193.0</ele><time>2026-04-11T08:54:57.388Z</time></trkpt><trkpt lat="45.573005" lon="8.6697767"><ele>193.0</ele><time>2026-04-11T08:54:58.387Z</time></trkpt><trkpt lat="45.57293" lon="8.6698167"><ele>193.0</ele><time>2026-04-11T08:55:01.387Z</time></trkpt><trkpt lat="45.5728633" lon="8.6698617"><ele>193.0</ele><time>2026-04-11T08:55:03.387Z</time></trkpt><trkpt lat="45.57271" lon="8.669915"><ele>193.0</ele><time>2026-04-11T08:55:05.382Z</time></trkpt><trkpt lat="45.5726117" lon="8.669875"><ele>193.0</ele><time>2026-04-11T08:55:08.389Z</time></trkpt><trkpt lat="45.572585" lon="8.669775"><ele>192.83333333333331</ele><time>2026-04-11T08:55:11.388Z</time></trkpt><trkpt lat="45.5725867" lon="8.669645"><ele>192.66666666666666</ele><time>2026-04-11T08:55:14.391Z</time></trkpt><trkpt lat="45.5725767" lon="8.669545"><ele>192.5</ele><time>2026-04-11T08:55:19.391Z</time></trkpt><trkpt lat="45.5725517" lon="8.6694517"><ele>192.33333333333331</ele><time>2026-04-11T08:55:24.385Z</time></trkpt><trkpt lat="45.5725517" lon="8.6693383"><ele>192.16666666666666</ele><time>2026-04-11T08:55:28.387Z</time></trkpt><trkpt lat="45.5725533" lon="8.6692417"><ele>192.0</ele><time>2026-04-11T08:55:31.39Z</time></trkpt><trkpt lat="45.5725517" lon="8.66913"><ele>192.42857142857142</ele><time>2026-04-11T08:55:34.389Z</time></trkpt><trkpt lat="45.5724817" lon="8.66912"><ele>192.85714285714286</ele><time>2026-04-11T08:55:37.389Z</time></trkpt><trkpt lat="45.5723983" lon="8.6691217"><ele>193.28571428571428</ele><time>2026-04-11T08:55:40.389Z</time></trkpt><trkpt lat="45.572335" lon="8.669125"><ele>193.71428571428572</ele><time>2026-04-11T08:55:42.393Z</time></trkpt><trkpt lat="45.572265" lon="8.6691433"><ele>194.14285714285714</ele><time>2026-04-11T08:55:44.392Z</time></trkpt><trkpt lat="45.5721967" lon="8.6691567"><ele>194.57142857142856</ele><time>2026-04-11T08:55:46.39Z</time></trkpt><trkpt lat="45.57213" lon="8.6691767"><ele>195.0</ele><time>2026-04-11T08:55:48.39Z</time></trkpt><trkpt lat="45.57206" lon="8.6691983"><ele>195.16666666666666</ele><time>2026-04-11T08:55:50.389Z</time></trkpt><trkpt lat="45.5719917" lon="8.669205"><ele>195.33333333333331</ele><time>2026-04-11T08:55:52.384Z</time></trkpt><trkpt lat="45.5718983" lon="8.6692167"><ele>195.5</ele><time>2026-04-11T08:55:54.389Z</time></trkpt><trkpt lat="45.5718133" lon="8.6692233"><ele>195.66666666666666</ele><time>2026-04-11T08:55:56.389Z</time></trkpt><trkpt lat="45.571745" lon="8.6692383"><ele>195.83333333333331</ele><time>2026-04-11T08:55:58.39Z</time></trkpt><trkpt lat="45.57165" lon="8.6692467"><ele>196.0</ele><time>2026-04-11T08:56:00.39Z</time></trkpt><trkpt lat="45.5715667" lon="8.66925"><ele>196.0</ele><time>2026-04-11T08:56:02.391Z</time></trkpt><trkpt lat="45.5714833" lon="8.6692767"><ele>196.0</ele><time>2026-04-11T08:56:04.389Z</time></trkpt><trkpt lat="45.5714167" lon="8.669295"><ele>196.0</ele><time>2026-04-11T08:56:06.383Z</time></trkpt><trkpt lat="45.5713533" lon="8.669325"><ele>196.0</ele><time>2026-04-11T08:56:08.39Z</time></trkpt><trkpt lat="45.5712883" lon="8.6693383"><ele>196.0</ele><time>2026-04-11T08:56:09.387Z</time></trkpt><trkpt lat="45.5712067" lon="8.6693683"><ele>196.0</ele><time>2026-04-11T08:56:11.388Z</time></trkpt><trkpt lat="45.5711383" lon="8.6693917"><ele>196.0</ele><time>2026-04-11T08:56:13.38Z</time></trkpt><trkpt lat="45.5710567" lon="8.6694383"><ele>194.99999999999997</ele><time>2026-04-11T08:56:15.381Z</time></trkpt><trkpt lat="45.5709867" lon="8.6694817"><ele>194.0</ele><time>2026-04-11T08:56:17.381Z</time></trkpt><trkpt lat="45.5709117" lon="8.669515"><ele>193.0</ele><time>2026-04-11T08:56:19.386Z</time></trkpt><trkpt lat="45.57083" lon="8.6695667"><ele>192.0</ele><time>2026-04-11T08:56:21.379Z</time></trkpt><trkpt lat="45.5707483" lon="8.6696283"><ele>191.0</ele><time>2026-04-11T08:56:24.387Z</time></trkpt><trkpt lat="45.57069" lon="8.669665"><ele>190.0</ele><time>2026-04-11T08:56:25.39Z</time></trkpt><trkpt lat="45.5706233" lon="8.6697017"><ele>190.0</ele><time>2026-04-11T08:56:27.389Z</time></trkpt><trkpt lat="45.57055" lon="8.6697417"><ele>190.0</ele><time>2026-04-11T08:56:29.388Z</time></trkpt><trkpt lat="45.570465" lon="8.6698"><ele>190.0</ele><time>2026-04-11T08:56:31.388Z</time></trkpt><trkpt lat="45.57036" lon="8.6698383"><ele>190.0</ele><time>2026-04-11T08:56:33.39Z</time></trkpt><trkpt lat="45.5702917" lon="8.6698717"><ele>190.0</ele><time>2026-04-11T08:56:35.389Z</time></trkpt><trkpt lat="45.5702433" lon="8.6699317"><ele>190.0</ele><time>2026-04-11T08:56:38.386Z</time></trkpt><trkpt lat="45.5701983" lon="8.670005"><ele>190.33333333333334</ele><time>2026-04-11T08:56:40.383Z</time></trkpt><trkpt lat="45.5701433" lon="8.6700833"><ele>190.66666666666669</ele><time>2026-04-11T08:56:43.386Z</time></trkpt><trkpt lat="45.570075" lon="8.67014"><ele>191.0</ele><time>2026-04-11T08:56:45.389Z</time></trkpt><trkpt lat="45.570015" lon="8.6701817"><ele>191.33333333333334</ele><time>2026-04-11T08:56:47.388Z</time></trkpt><trkpt lat="45.5699233" lon="8.67023"><ele>191.66666666666666</ele><time>2026-04-11T08:56:49.387Z</time></trkpt><trkpt lat="45.5698633" lon="8.670275"><ele>192.0</ele><time>2026-04-11T08:56:51.389Z</time></trkpt><trkpt lat="45.569805" lon="8.67033"><ele>191.33333333333334</ele><time>2026-04-11T08:56:53.388Z</time></trkpt><trkpt lat="45.569735" lon="8.670385"><ele>190.66666666666666</ele><time>2026-04-11T08:56:55.39Z</time></trkpt><trkpt lat="45.569645" lon="8.6704467"><ele>190.0</ele><time>2026-04-11T08:56:58.39Z</time></trkpt><trkpt lat="45.56957" lon="8.6704983"><ele>189.33333333333331</ele><time>2026-04-11T08:57:00.387Z</time></trkpt><trkpt lat="45.5695133" lon="8.67055"><ele>188.66666666666666</ele><time>2026-04-11T08:57:02.391Z</time></trkpt><trkpt lat="45.5694417" lon="8.6706033"><ele>188.0</ele><time>2026-04-11T08:57:04.388Z</time></trkpt><trkpt lat="45.569385" lon="8.670655"><ele>188.0</ele><time>2026-04-11T08:57:06.39Z</time></trkpt><trkpt lat="45.5693233" lon="8.670715"><ele>188.0</ele><time>2026-04-11T08:57:08.391Z</time></trkpt><trkpt lat="45.569275" lon="8.6707883"><ele>188.0</ele><time>2026-04-11T08:57:10.39Z</time></trkpt><trkpt lat="45.569195" lon="8.67085"><ele>188.0</ele><time>2026-04-11T08:57:13.388Z</time></trkpt><trkpt lat="45.569125" lon="8.670915"><ele>188.0</ele><time>2026-04-11T08:57:16.389Z</time></trkpt><trkpt lat="45.5690567" lon="8.6709483"><ele>188.0</ele><time>2026-04-11T08:57:19.39Z</time></trkpt><trkpt lat="45.5689917" lon="8.6709583"><ele>188.0</ele><time>2026-04-11T08:57:22.389Z</time></trkpt><trkpt lat="45.5689333" lon="8.6709083"><ele>188.0</ele><time>2026-04-11T08:57:26.389Z</time></trkpt><trkpt lat="45.5689033" lon="8.6708167"><ele>188.0</ele><time>2026-04-11T08:57:31.387Z</time></trkpt><trkpt lat="45.568895" lon="8.6707133"><ele>188.0</ele><time>2026-04-11T08:57:36.389Z</time></trkpt><trkpt lat="45.5688783" lon="8.6705983"><ele>188.0</ele><time>2026-04-11T08:57:41.387Z</time></trkpt><trkpt lat="45.5688333" lon="8.6705333"><ele>188.0</ele><time>2026-04-11T08:57:46.387Z</time></trkpt><trkpt lat="45.568785" lon="8.6706183"><ele>188.0</ele><time>2026-04-11T08:57:52.383Z</time></trkpt><trkpt lat="45.5687583" lon="8.6707067"><ele>188.0</ele><time>2026-04-11T08:57:56.387Z</time></trkpt><trkpt lat="45.56872" lon="8.6707867"><ele>188.0</ele><time>2026-04-11T08:57:59.385Z</time></trkpt><trkpt lat="45.5686717" lon="8.67087"><ele>188.0</ele><time>2026-04-11T08:58:02.386Z</time></trkpt><trkpt lat="45.5686383" lon="8.67096"><ele>188.0</ele><time>2026-04-11T08:58:05.387Z</time></trkpt><trkpt lat="45.5686083" lon="8.6710533"><ele>188.0</ele><time>2026-04-11T08:58:09.388Z</time></trkpt><trkpt lat="45.5685867" lon="8.67114"><ele>188.0</ele><time>2026-04-11T08:58:12.381Z</time></trkpt><trkpt lat="45.5685433" lon="8.6712617"><ele>188.0</ele><time>2026-04-11T08:58:15.387Z</time></trkpt><trkpt lat="45.5685167" lon="8.671345"><ele>188.5</ele><time>2026-04-11T08:58:17.387Z</time></trkpt><trkpt lat="45.5684733" lon="8.6714483"><ele>189.0</ele><time>2026-04-11T08:58:20.39Z</time></trkpt><trkpt lat="45.5684217" lon="8.6715233"><ele>189.5</ele><time>2026-04-11T08:58:22.389Z</time></trkpt><trkpt lat="45.568385" lon="8.6715967"><ele>190.0</ele><time>2026-04-11T08:58:24.391Z</time></trkpt><trkpt lat="45.5683217" lon="8.671705"><ele>190.5</ele><time>2026-04-11T08:58:27.389Z</time></trkpt><trkpt lat="45.5682817" lon="8.671775"><ele>191.0</ele><time>2026-04-11T08:58:29.39Z</time></trkpt><trkpt lat="45.5682267" lon="8.67187"><ele>191.0</ele><time>2026-04-11T08:58:32.389Z</time></trkpt><trkpt lat="45.568175" lon="8.6719383"><ele>191.0</ele><time>2026-04-11T08:58:34.39Z</time></trkpt><trkpt lat="45.5681233" lon="8.672025"><ele>191.0</ele><time>2026-04-11T08:58:36.392Z</time></trkpt><trkpt lat="45.5680683" lon="8.67212"><ele>191.0</ele><time>2026-04-11T08:58:38.389Z</time></trkpt><trkpt lat="45.5680067" lon="8.67221"><ele>191.0</ele><time>2026-04-11T08:58:40.389Z</time></trkpt><trkpt lat="45.5679433" lon="8.6722933"><ele>191.0</ele><time>2026-04-11T08:58:42.391Z</time></trkpt><trkpt lat="45.567875" lon="8.6723883"><ele>191.60000000000002</ele><time>2026-04-11T08:58:44.392Z</time></trkpt><trkpt lat="45.567785" lon="8.6725033"><ele>192.2</ele><time>2026-04-11T08:58:46.388Z</time></trkpt><trkpt lat="45.5676967" lon="8.6726317"><ele>192.8</ele><time>2026-04-11T08:58:48.385Z</time></trkpt><trkpt lat="45.5676467" lon="8.6726967"><ele>193.39999999999998</ele><time>2026-04-11T08:58:49.384Z</time></trkpt><trkpt lat="45.5675933" lon="8.6727617"><ele>194.0</ele><time>2026-04-11T08:58:50.386Z</time></trkpt><trkpt lat="45.5675433" lon="8.6728417"><ele>194.0</ele><time>2026-04-11T08:58:51.384Z</time></trkpt><trkpt lat="45.56749" lon="8.6729083"><ele>194.0</ele><time>2026-04-11T08:58:52.386Z</time></trkpt><trkpt lat="45.567445" lon="8.6729767"><ele>194.0</ele><time>2026-04-11T08:58:53.385Z</time></trkpt><trkpt lat="45.5673567" lon="8.673105"><ele>194.0</ele><time>2026-04-11T08:58:55.385Z</time></trkpt><trkpt lat="45.5672733" lon="8.6732417"><ele>194.0</ele><time>2026-04-11T08:58:57.387Z</time></trkpt><trkpt lat="45.5672417" lon="8.67332"><ele>194.00000000000003</ele><time>2026-04-11T08:58:58.387Z</time></trkpt><trkpt lat="45.56721" lon="8.6734083"><ele>194.0</ele><time>2026-04-11T08:58:59.387Z</time></trkpt><trkpt lat="45.5671833" lon="8.6735033"><ele>194.0</ele><time>2026-04-11T08:59:00.385Z</time></trkpt><trkpt lat="45.5671617" lon="8.6736033"><ele>194.0</ele><time>2026-04-11T08:59:01.386Z</time></trkpt><trkpt lat="45.567135" lon="8.673695"><ele>194.00000000000003</ele><time>2026-04-11T08:59:02.386Z</time></trkpt><trkpt lat="45.5670833" lon="8.67384"><ele>194.0</ele><time>2026-04-11T08:59:04.384Z</time></trkpt><trkpt lat="45.5670567" lon="8.6739267"><ele>194.0</ele><time>2026-04-11T08:59:05.386Z</time></trkpt><trkpt lat="45.56703" lon="8.67401"><ele>194.0</ele><time>2026-04-11T08:59:06.386Z</time></trkpt><trkpt lat="45.567" lon="8.674095"><ele>194.0</ele><time>2026-04-11T08:59:07.386Z</time></trkpt><trkpt lat="45.566975" lon="8.674185"><ele>194.0</ele><time>2026-04-11T08:59:08.388Z</time></trkpt><trkpt lat="45.56695" lon="8.6742733"><ele>194.0</ele><time>2026-04-11T08:59:09.386Z</time></trkpt><trkpt lat="45.5669233" lon="8.6743767"><ele>194.0</ele><time>2026-04-11T08:59:10.384Z</time></trkpt><trkpt lat="45.5668983" lon="8.6744733"><ele>194.0</ele><time>2026-04-11T08:59:11.383Z</time></trkpt><trkpt lat="45.5668717" lon="8.6745833"><ele>193.14285714285714</ele><time>2026-04-11T08:59:12.386Z</time></trkpt><trkpt lat="45.5668483" lon="8.6746833"><ele>192.2857142857143</ele><time>2026-04-11T08:59:13.387Z</time></trkpt><trkpt lat="45.5668283" lon="8.674775"><ele>191.42857142857144</ele><time>2026-04-11T08:59:14.386Z</time></trkpt><trkpt lat="45.566805" lon="8.6748683"><ele>190.57142857142856</ele><time>2026-04-11T08:59:15.385Z</time></trkpt><trkpt lat="45.5667833" lon="8.6749533"><ele>189.71428571428572</ele><time>2026-04-11T08:59:16.385Z</time></trkpt><trkpt lat="45.5667667" lon="8.6750417"><ele>188.85714285714286</ele><time>2026-04-11T08:59:17.381Z</time></trkpt><trkpt lat="45.56675" lon="8.6751317"><ele>188.0</ele><time>2026-04-11T08:59:18.387Z</time></trkpt><trkpt lat="45.5667333" lon="8.675225"><ele>187.16666666666666</ele><time>2026-04-11T08:59:19.387Z</time></trkpt><trkpt lat="45.566715" lon="8.6753133"><ele>186.33333333333331</ele><time>2026-04-11T08:59:20.386Z</time></trkpt><trkpt lat="45.5666967" lon="8.675405"><ele>185.5</ele><time>2026-04-11T08:59:21.385Z</time></trkpt><trkpt lat="45.5666783" lon="8.6755033"><ele>184.66666666666666</ele><time>2026-04-11T08:59:22.385Z</time></trkpt><trkpt lat="45.5666417" lon="8.675675"><ele>183.83333333333334</ele><time>2026-04-11T08:59:24.386Z</time></trkpt><trkpt lat="45.5666217" lon="8.675765"><ele>183.0</ele><time>2026-04-11T08:59:25.389Z</time></trkpt><trkpt lat="45.566565" lon="8.6759167"><ele>183.0</ele><time>2026-04-11T08:59:27.384Z</time></trkpt><trkpt lat="45.5665083" lon="8.67607"><ele>183.0</ele><time>2026-04-11T08:59:29.385Z</time></trkpt><trkpt lat="45.5664517" lon="8.6762217"><ele>183.0</ele><time>2026-04-11T08:59:31.386Z</time></trkpt><trkpt lat="45.5663917" lon="8.676365"><ele>183.0</ele><time>2026-04-11T08:59:33.387Z</time></trkpt><trkpt lat="45.5663433" lon="8.6765"><ele>182.83333333333334</ele><time>2026-04-11T08:59:35.387Z</time></trkpt><trkpt lat="45.566295" lon="8.676625"><ele>182.66666666666666</ele><time>2026-04-11T08:59:37.387Z</time></trkpt><trkpt lat="45.5662617" lon="8.676725"><ele>182.5</ele><time>2026-04-11T08:59:39.389Z</time></trkpt><trkpt lat="45.5662567" lon="8.6768483"><ele>182.33333333333331</ele><time>2026-04-11T08:59:41.387Z</time></trkpt><trkpt lat="45.5662633" lon="8.6769733"><ele>182.16666666666666</ele><time>2026-04-11T08:59:43.382Z</time></trkpt><trkpt lat="45.5662533" lon="8.67708"><ele>182.0</ele><time>2026-04-11T08:59:45.387Z</time></trkpt><trkpt lat="45.566245" lon="8.6771717"><ele>181.83333333333331</ele><time>2026-04-11T08:59:47.386Z</time></trkpt><trkpt lat="45.5662367" lon="8.6772617"><ele>181.66666666666666</ele><time>2026-04-11T08:59:49.388Z</time></trkpt><trkpt lat="45.5662217" lon="8.6773617"><ele>181.5</ele><time>2026-04-11T08:59:51.386Z</time></trkpt><trkpt lat="45.5662117" lon="8.6774767"><ele>181.33333333333334</ele><time>2026-04-11T08:59:53.387Z</time></trkpt><trkpt lat="45.5661883" lon="8.67761"><ele>181.16666666666669</ele><time>2026-04-11T08:59:55.385Z</time></trkpt><trkpt lat="45.5661667" lon="8.6777533"><ele>181.0</ele><time>2026-04-11T08:59:57.383Z</time></trkpt><trkpt lat="45.5661467" lon="8.677885"><ele>181.4</ele><time>2026-04-11T08:59:59.385Z</time></trkpt><trkpt lat="45.5661283" lon="8.6780167"><ele>181.8</ele><time>2026-04-11T09:00:01.386Z</time></trkpt><trkpt lat="45.566115" lon="8.6781567"><ele>182.20000000000002</ele><time>2026-04-11T09:00:03.384Z</time></trkpt><trkpt lat="45.566095" lon="8.67829"><ele>182.60000000000002</ele><time>2026-04-11T09:00:05.386Z</time></trkpt><trkpt lat="45.5660733" lon="8.6784283"><ele>183.0</ele><time>2026-04-11T09:00:07.383Z</time></trkpt><trkpt lat="45.5660533" lon="8.6785483"><ele>183.16666666666666</ele><time>2026-04-11T09:00:09.385Z</time></trkpt><trkpt lat="45.5660383" lon="8.678665"><ele>183.33333333333334</ele><time>2026-04-11T09:00:11.387Z</time></trkpt><trkpt lat="45.566025" lon="8.6787883"><ele>183.5</ele><time>2026-04-11T09:00:13.388Z</time></trkpt><trkpt lat="45.56601" lon="8.6789083"><ele>183.66666666666669</ele><time>2026-04-11T09:00:15.381Z</time></trkpt><trkpt lat="45.5659883" lon="8.679025"><ele>183.83333333333334</ele><time>2026-04-11T09:00:17.388Z</time></trkpt><trkpt lat="45.56596" lon="8.6791283"><ele>184.0</ele><time>2026-04-11T09:00:19.39Z</time></trkpt><trkpt lat="45.5659433" lon="8.6792467"><ele>184.0</ele><time>2026-04-11T09:00:21.387Z</time></trkpt><trkpt lat="45.565925" lon="8.6793717"><ele>184.0</ele><time>2026-04-11T09:00:23.389Z</time></trkpt><trkpt lat="45.565905" lon="8.6795"><ele>184.0</ele><time>2026-04-11T09:00:25.388Z</time></trkpt><trkpt lat="45.5658767" lon="8.6795967"><ele>184.0</ele><time>2026-04-11T09:00:27.391Z</time></trkpt><trkpt lat="45.5658067" lon="8.6796983"><ele>184.0</ele><time>2026-04-11T09:00:30.39Z</time></trkpt><trkpt lat="45.5657383" lon="8.679755"><ele>184.0</ele><time>2026-04-11T09:00:32.386Z</time></trkpt><trkpt lat="45.56567" lon="8.67981"><ele>184.0</ele><time>2026-04-11T09:00:34.389Z</time></trkpt><trkpt lat="45.5656133" lon="8.6798517"><ele>184.0</ele><time>2026-04-11T09:00:36.39Z</time></trkpt><trkpt lat="45.56555" lon="8.679875"><ele>184.0</ele><time>2026-04-11T09:00:38.39Z</time></trkpt><trkpt lat="45.5654867" lon="8.6799"><ele>184.0</ele><time>2026-04-11T09:00:40.389Z</time></trkpt><trkpt lat="45.5654" lon="8.6799183"><ele>184.0</ele><time>2026-04-11T09:00:42.387Z</time></trkpt><trkpt lat="45.5653333" lon="8.67994"><ele>184.0</ele><time>2026-04-11T09:00:44.391Z</time></trkpt><trkpt lat="45.5652517" lon="8.6799983"><ele>184.0</ele><time>2026-04-11T09:00:47.388Z</time></trkpt><trkpt lat="45.5651683" lon="8.6800317"><ele>184.79999999999998</ele><time>2026-04-11T09:00:49.39Z</time></trkpt><trkpt lat="45.5650633" lon="8.6800733"><ele>185.6</ele><time>2026-04-11T09:00:51.391Z</time></trkpt><trkpt lat="45.5649967" lon="8.6801783"><ele>186.4</ele><time>2026-04-11T09:00:53.388Z</time></trkpt><trkpt lat="45.5649533" lon="8.6802533"><ele>187.2</ele><time>2026-04-11T09:00:55.385Z</time></trkpt><trkpt lat="45.5648917" lon="8.6803017"><ele>188.0</ele><time>2026-04-11T09:00:57.387Z</time></trkpt><trkpt lat="45.5647933" lon="8.6803517"><ele>188.0</ele><time>2026-04-11T09:00:59.386Z</time></trkpt><trkpt lat="45.5647017" lon="8.6803817"><ele>188.0</ele><time>2026-04-11T09:01:01.388Z</time></trkpt><trkpt lat="45.5646033" lon="8.6804183"><ele>188.0</ele><time>2026-04-11T09:01:03.387Z</time></trkpt><trkpt lat="45.5644967" lon="8.68046"><ele>188.0</ele><time>2026-04-11T09:01:05.386Z</time></trkpt><trkpt lat="45.5644033" lon="8.6804967"><ele>188.0</ele><time>2026-04-11T09:01:07.381Z</time></trkpt><trkpt lat="45.5643183" lon="8.6805333"><ele>188.42857142857142</ele><time>2026-04-11T09:01:09.39Z</time></trkpt><trkpt lat="45.5642467" lon="8.6805733"><ele>188.85714285714283</ele><time>2026-04-11T09:01:11.388Z</time></trkpt><trkpt lat="45.564165" lon="8.6806083"><ele>189.28571428571428</ele><time>2026-04-11T09:01:14.391Z</time></trkpt><trkpt lat="45.5641017" lon="8.6806467"><ele>189.71428571428572</ele><time>2026-04-11T09:01:16.389Z</time></trkpt><trkpt lat="45.5640417" lon="8.680675"><ele>190.14285714285714</ele><time>2026-04-11T09:01:18.384Z</time></trkpt><trkpt lat="45.5639783" lon="8.6806983"><ele>190.57142857142858</ele><time>2026-04-11T09:01:21.388Z</time></trkpt><trkpt lat="45.5639083" lon="8.6807"><ele>191.0</ele><time>2026-04-11T09:01:24.384Z</time></trkpt><trkpt lat="45.563845" lon="8.68073"><ele>191.0</ele><time>2026-04-11T09:01:26.389Z</time></trkpt><trkpt lat="45.56377" lon="8.68076"><ele>191.0</ele><time>2026-04-11T09:01:28.39Z</time></trkpt><trkpt lat="45.563695" lon="8.68078"><ele>191.0</ele><time>2026-04-11T09:01:30.394Z</time></trkpt><trkpt lat="45.563605" lon="8.6807967"><ele>191.0</ele><time>2026-04-11T09:01:32.391Z</time></trkpt><trkpt lat="45.5635017" lon="8.68082"><ele>191.0</ele><time>2026-04-11T09:01:34.386Z</time></trkpt><trkpt lat="45.5634067" lon="8.6808417"><ele>191.0</ele><time>2026-04-11T09:01:36.389Z</time></trkpt><trkpt lat="45.563325" lon="8.68087"><ele>191.16666666666666</ele><time>2026-04-11T09:01:38.393Z</time></trkpt><trkpt lat="45.5632683" lon="8.68092"><ele>191.33333333333331</ele><time>2026-04-11T09:01:40.39Z</time></trkpt><trkpt lat="45.56321" lon="8.680985"><ele>191.5</ele><time>2026-04-11T09:01:42.387Z</time></trkpt><trkpt lat="45.5631433" lon="8.681105"><ele>191.66666666666666</ele><time>2026-04-11T09:01:44.389Z</time></trkpt><trkpt lat="45.5630883" lon="8.681155"><ele>191.83333333333334</ele><time>2026-04-11T09:01:45.388Z</time></trkpt><trkpt lat="45.5629917" lon="8.6812133"><ele>192.0</ele><time>2026-04-11T09:01:47.387Z</time></trkpt><trkpt lat="45.562875" lon="8.6812667"><ele>191.83333333333334</ele><time>2026-04-11T09:01:49.388Z</time></trkpt><trkpt lat="45.5627733" lon="8.6813317"><ele>191.66666666666666</ele><time>2026-04-11T09:01:51.386Z</time></trkpt><trkpt lat="45.5626933" lon="8.6813733"><ele>191.5</ele><time>2026-04-11T09:01:53.386Z</time></trkpt><trkpt lat="45.5626167" lon="8.6814483"><ele>191.33333333333331</ele><time>2026-04-11T09:01:55.386Z</time></trkpt><trkpt lat="45.562545" lon="8.6815033"><ele>191.16666666666666</ele><time>2026-04-11T09:01:57.388Z</time></trkpt><trkpt lat="45.56249" lon="8.6815667"><ele>191.0</ele><time>2026-04-11T09:01:59.387Z</time></trkpt><trkpt lat="45.5624233" lon="8.6817183"><ele>191.0</ele><time>2026-04-11T09:02:01.389Z</time></trkpt><trkpt lat="45.5623783" lon="8.681785"><ele>191.0</ele><time>2026-04-11T09:02:02.385Z</time></trkpt><trkpt lat="45.5622833" lon="8.6818233"><ele>191.0</ele><time>2026-04-11T09:02:04.388Z</time></trkpt><trkpt lat="45.562185" lon="8.68185"><ele>191.0</ele><time>2026-04-11T09:02:06.391Z</time></trkpt><trkpt lat="45.5620367" lon="8.6818567"><ele>191.0</ele><time>2026-04-11T09:02:08.386Z</time></trkpt><trkpt lat="45.56197" lon="8.6818767"><ele>190.5</ele><time>2026-04-11T09:02:09.39Z</time></trkpt><trkpt lat="45.5618833" lon="8.6818417"><ele>190.0</ele><time>2026-04-11T09:02:11.389Z</time></trkpt><trkpt lat="45.5618083" lon="8.681825"><ele>189.5</ele><time>2026-04-11T09:02:13.389Z</time></trkpt><trkpt lat="45.5617383" lon="8.681825"><ele>189.0</ele><time>2026-04-11T09:02:15.391Z</time></trkpt><trkpt lat="45.5616683" lon="8.6818217"><ele>188.5</ele><time>2026-04-11T09:02:17.388Z</time></trkpt><trkpt lat="45.5616033" lon="8.6818217"><ele>188.0</ele><time>2026-04-11T09:02:19.388Z</time></trkpt><trkpt lat="45.561505" lon="8.6818433"><ele>188.0</ele><time>2026-04-11T09:02:21.388Z</time></trkpt><trkpt lat="45.5614217" lon="8.6818917"><ele>188.0</ele><time>2026-04-11T09:02:23.391Z</time></trkpt><trkpt lat="45.5613617" lon="8.681925"><ele>188.0</ele><time>2026-04-11T09:02:24.394Z</time></trkpt><trkpt lat="45.5613" lon="8.6819517"><ele>188.0</ele><time>2026-04-11T09:02:25.39Z</time></trkpt><trkpt lat="45.5612367" lon="8.6819683"><ele>188.0</ele><time>2026-04-11T09:02:26.39Z</time></trkpt><trkpt lat="45.5611733" lon="8.6819717"><ele>188.0</ele><time>2026-04-11T09:02:27.39Z</time></trkpt><trkpt lat="45.5610683" lon="8.681985"><ele>188.0</ele><time>2026-04-11T09:02:29.39Z</time></trkpt><trkpt lat="45.5609983" lon="8.6820117"><ele>188.0</ele><time>2026-04-11T09:02:30.393Z</time></trkpt><trkpt lat="45.56091" lon="8.68208"><ele>188.0</ele><time>2026-04-11T09:02:32.39Z</time></trkpt><trkpt lat="45.5608267" lon="8.6821417"><ele>188.0</ele><time>2026-04-11T09:02:34.387Z</time></trkpt><trkpt lat="45.5607467" lon="8.6821883"><ele>188.0</ele><time>2026-04-11T09:02:36.387Z</time></trkpt><trkpt lat="45.5606667" lon="8.6822317"><ele>188.0</ele><time>2026-04-11T09:02:38.39Z</time></trkpt><trkpt lat="45.5605967" lon="8.68228"><ele>188.0</ele><time>2026-04-11T09:02:40.388Z</time></trkpt><trkpt lat="45.5605333" lon="8.6823367"><ele>188.0</ele><time>2026-04-11T09:02:42.39Z</time></trkpt><trkpt lat="45.5604733" lon="8.68238"><ele>188.0</ele><time>2026-04-11T09:02:44.387Z</time></trkpt><trkpt lat="45.5603983" lon="8.682435"><ele>188.0</ele><time>2026-04-11T09:02:46.389Z</time></trkpt><trkpt lat="45.5603233" lon="8.682485"><ele>188.0</ele><time>2026-04-11T09:02:48.381Z</time></trkpt><trkpt lat="45.56025" lon="8.6825317"><ele>188.0</ele><time>2026-04-11T09:02:50.391Z</time></trkpt><trkpt lat="45.5601867" lon="8.6825583"><ele>187.60000000000002</ele><time>2026-04-11T09:02:51.39Z</time></trkpt><trkpt lat="45.5600967" lon="8.6825867"><ele>187.20000000000002</ele><time>2026-04-11T09:02:53.388Z</time></trkpt><trkpt lat="45.55998" lon="8.6826317"><ele>186.8</ele><time>2026-04-11T09:02:55.386Z</time></trkpt><trkpt lat="45.5599167" lon="8.6826517"><ele>186.4</ele><time>2026-04-11T09:02:56.385Z</time></trkpt><trkpt lat="45.5598233" lon="8.6827"><ele>186.0</ele><time>2026-04-11T09:02:58.388Z</time></trkpt><trkpt lat="45.55973" lon="8.682765"><ele>185.66666666666666</ele><time>2026-04-11T09:03:00.39Z</time></trkpt><trkpt lat="45.5596467" lon="8.6828267"><ele>185.33333333333334</ele><time>2026-04-11T09:03:02.389Z</time></trkpt><trkpt lat="45.5595817" lon="8.682885"><ele>185.0</ele><time>2026-04-11T09:03:04.388Z</time></trkpt><trkpt lat="45.5595" lon="8.6829467"><ele>184.66666666666669</ele><time>2026-04-11T09:03:06.388Z</time></trkpt><trkpt lat="45.5594217" lon="8.6829867"><ele>184.33333333333334</ele><time>2026-04-11T09:03:08.383Z</time></trkpt><trkpt lat="45.5593333" lon="8.6830283"><ele>184.0</ele><time>2026-04-11T09:03:10.385Z</time></trkpt><trkpt lat="45.5592517" lon="8.68311"><ele>183.79999999999998</ele><time>2026-04-11T09:03:12.39Z</time></trkpt><trkpt lat="45.5591533" lon="8.6831667"><ele>183.6</ele><time>2026-04-11T09:03:14.39Z</time></trkpt><trkpt lat="45.5590617" lon="8.6832533"><ele>183.4</ele><time>2026-04-11T09:03:16.388Z</time></trkpt><trkpt lat="45.5589917" lon="8.683355"><ele>183.2</ele><time>2026-04-11T09:03:18.388Z</time></trkpt><trkpt lat="45.5589217" lon="8.6835133"><ele>183.0</ele><time>2026-04-11T09:03:20.388Z</time></trkpt><trkpt lat="45.5588467" lon="8.68362"><ele>182.8</ele><time>2026-04-11T09:03:22.387Z</time></trkpt><trkpt lat="45.5587767" lon="8.6836667"><ele>182.60000000000002</ele><time>2026-04-11T09:03:24.391Z</time></trkpt><trkpt lat="45.558685" lon="8.683685"><ele>182.39999999999998</ele><time>2026-04-11T09:03:26.39Z</time></trkpt><trkpt lat="45.5585733" lon="8.68371"><ele>182.2</ele><time>2026-04-11T09:03:28.392Z</time></trkpt><trkpt lat="45.55845" lon="8.6837267"><ele>182.0</ele><time>2026-04-11T09:03:30.391Z</time></trkpt><trkpt lat="45.558385" lon="8.683745"><ele>182.0</ele><time>2026-04-11T09:03:31.389Z</time></trkpt><trkpt lat="45.5582817" lon="8.683755"><ele>182.0</ele><time>2026-04-11T09:03:33.39Z</time></trkpt><trkpt lat="45.5581683" lon="8.6837767"><ele>182.0</ele><time>2026-04-11T09:03:35.391Z</time></trkpt><trkpt lat="45.5580817" lon="8.68379"><ele>182.0</ele><time>2026-04-11T09:03:37.388Z</time></trkpt><trkpt lat="45.5580133" lon="8.6837883"><ele>182.0</ele><time>2026-04-11T09:03:39.388Z</time></trkpt><trkpt lat="45.55793" lon="8.6837783"><ele>182.33333333333331</ele><time>2026-04-11T09:03:41.386Z</time></trkpt><trkpt lat="45.557835" lon="8.6837817"><ele>182.66666666666666</ele><time>2026-04-11T09:03:43.386Z</time></trkpt><trkpt lat="45.557755" lon="8.683795"><ele>183.0</ele><time>2026-04-11T09:03:45.386Z</time></trkpt><trkpt lat="45.55769" lon="8.6838317"><ele>183.33333333333334</ele><time>2026-04-11T09:03:47.388Z</time></trkpt><trkpt lat="45.5575983" lon="8.6838767"><ele>183.66666666666669</ele><time>2026-04-11T09:03:49.389Z</time></trkpt><trkpt lat="45.557535" lon="8.6838983"><ele>184.0</ele><time>2026-04-11T09:03:51.391Z</time></trkpt><trkpt lat="45.5574483" lon="8.6838983"><ele>184.0</ele><time>2026-04-11T09:03:53.39Z</time></trkpt><trkpt lat="45.5573583" lon="8.6839067"><ele>184.0</ele><time>2026-04-11T09:03:55.39Z</time></trkpt><trkpt lat="45.5572717" lon="8.6839233"><ele>184.0</ele><time>2026-04-11T09:03:57.387Z</time></trkpt><trkpt lat="45.5572" lon="8.683935"><ele>184.0</ele><time>2026-04-11T09:03:59.388Z</time></trkpt><trkpt lat="45.55711" lon="8.6839217"><ele>184.0</ele><time>2026-04-11T09:04:02.387Z</time></trkpt><trkpt lat="45.5570317" lon="8.6839083"><ele>184.0</ele><time>2026-04-11T09:04:04.387Z</time></trkpt><trkpt lat="45.556965" lon="8.6838867"><ele>184.6</ele><time>2026-04-11T09:04:06.389Z</time></trkpt><trkpt lat="45.556865" lon="8.6838433"><ele>185.2</ele><time>2026-04-11T09:04:08.392Z</time></trkpt><trkpt lat="45.5567617" lon="8.6838033"><ele>185.79999999999998</ele><time>2026-04-11T09:04:10.387Z</time></trkpt><trkpt lat="45.556665" lon="8.6838017"><ele>186.39999999999998</ele><time>2026-04-11T09:04:12.397Z</time></trkpt><trkpt lat="45.5565683" lon="8.683785"><ele>187.0</ele><time>2026-04-11T09:04:14.388Z</time></trkpt><trkpt lat="45.5565033" lon="8.6837717"><ele>187.0</ele><time>2026-04-11T09:04:16.388Z</time></trkpt><trkpt lat="45.5564067" lon="8.6837867"><ele>187.0</ele><time>2026-04-11T09:04:17.388Z</time></trkpt><trkpt lat="45.556335" lon="8.6837867"><ele>187.0</ele><time>2026-04-11T09:04:18.39Z</time></trkpt><trkpt lat="45.5561667" lon="8.683805"><ele>187.0</ele><time>2026-04-11T09:04:20.39Z</time></trkpt><trkpt lat="45.556075" lon="8.68382"><ele>187.0</ele><time>2026-04-11T09:04:22.386Z</time></trkpt><trkpt lat="45.5559967" lon="8.6838317"><ele>186.66666666666669</ele><time>2026-04-11T09:04:24.388Z</time></trkpt><trkpt lat="45.5559267" lon="8.68384"><ele>186.33333333333334</ele><time>2026-04-11T09:04:26.385Z</time></trkpt><trkpt lat="45.5558267" lon="8.6838583"><ele>186.0</ele><time>2026-04-11T09:04:28.389Z</time></trkpt><trkpt lat="45.555755" lon="8.68388"><ele>185.66666666666666</ele><time>2026-04-11T09:04:30.389Z</time></trkpt><trkpt lat="45.55569" lon="8.6838983"><ele>185.33333333333331</ele><time>2026-04-11T09:04:32.39Z</time></trkpt><trkpt lat="45.5556167" lon="8.6839133"><ele>185.0</ele><time>2026-04-11T09:04:34.39Z</time></trkpt><trkpt lat="45.555525" lon="8.68394"><ele>185.0</ele><time>2026-04-11T09:04:36.387Z</time></trkpt><trkpt lat="45.555445" lon="8.683965"><ele>185.0</ele><time>2026-04-11T09:04:38.39Z</time></trkpt><trkpt lat="45.5553583" lon="8.6839967"><ele>185.0</ele><time>2026-04-11T09:04:40.385Z</time></trkpt><trkpt lat="45.555275" lon="8.684015"><ele>185.0</ele><time>2026-04-11T09:04:42.39Z</time></trkpt><trkpt lat="45.5552017" lon="8.6840317"><ele>185.0</ele><time>2026-04-11T09:04:44.387Z</time></trkpt><trkpt lat="45.5551133" lon="8.6840533"><ele>185.0</ele><time>2026-04-11T09:04:46.388Z</time></trkpt><trkpt lat="45.5550033" lon="8.68409"><ele>185.0</ele><time>2026-04-11T09:04:48.384Z</time></trkpt><trkpt lat="45.5549233" lon="8.684125"><ele>185.0</ele><time>2026-04-11T09:04:50.384Z</time></trkpt><trkpt lat="45.5548533" lon="8.684145"><ele>185.0</ele><time>2026-04-11T09:04:52.387Z</time></trkpt><trkpt lat="45.5547833" lon="8.68419"><ele>185.0</ele><time>2026-04-11T09:04:55.387Z</time></trkpt><trkpt lat="45.5547083" lon="8.6842267"><ele>185.0</ele><time>2026-04-11T09:04:58.391Z</time></trkpt><trkpt lat="45.554625" lon="8.68422"><ele>185.0</ele><time>2026-04-11T09:05:00.388Z</time></trkpt><trkpt lat="45.5545517" lon="8.6842683"><ele>185.0</ele><time>2026-04-11T09:05:03.389Z</time></trkpt><trkpt lat="45.5544933" lon="8.6843367"><ele>185.0</ele><time>2026-04-11T09:05:05.388Z</time></trkpt><trkpt lat="45.5544133" lon="8.6843583"><ele>185.0</ele><time>2026-04-11T09:05:08.39Z</time></trkpt><trkpt lat="45.5543433" lon="8.6843467"><ele>185.0</ele><time>2026-04-11T09:05:10.386Z</time></trkpt><trkpt lat="45.5542483" lon="8.6844033"><ele>185.0</ele><time>2026-04-11T09:05:12.39Z</time></trkpt><trkpt lat="45.5541667" lon="8.6844367"><ele>185.0</ele><time>2026-04-11T09:05:15.389Z</time></trkpt><trkpt lat="45.5541083" lon="8.6844917"><ele>185.0</ele><time>2026-04-11T09:05:17.388Z</time></trkpt><trkpt lat="45.5540183" lon="8.6845033"><ele>185.0</ele><time>2026-04-11T09:05:19.388Z</time></trkpt><trkpt lat="45.553945" lon="8.6845467"><ele>185.0</ele><time>2026-04-11T09:05:21.388Z</time></trkpt><trkpt lat="45.55388" lon="8.684565"><ele>185.0</ele><time>2026-04-11T09:05:23.389Z</time></trkpt><trkpt lat="45.5538067" lon="8.6845617"><ele>185.0</ele><time>2026-04-11T09:05:26.382Z</time></trkpt><trkpt lat="45.5537267" lon="8.68459"><ele>185.0</ele><time>2026-04-11T09:05:29.389Z</time></trkpt><trkpt lat="45.553655" lon="8.6846233"><ele>185.0</ele><time>2026-04-11T09:05:33.388Z</time></trkpt><trkpt lat="45.553535" lon="8.6846433"><ele>185.0</ele><time>2026-04-11T09:05:35.389Z</time></trkpt><trkpt lat="45.5534867" lon="8.6847067"><ele>185.0</ele><time>2026-04-11T09:05:37.386Z</time></trkpt><trkpt lat="45.553415" lon="8.6848017"><ele>185.0</ele><time>2026-04-11T09:05:39.39Z</time></trkpt><trkpt lat="45.55341" lon="8.684915"><ele>185.0</ele><time>2026-04-11T09:05:41.388Z</time></trkpt><trkpt lat="45.5534083" lon="8.685055"><ele>185.0</ele><time>2026-04-11T09:05:43.386Z</time></trkpt><trkpt lat="45.5534183" lon="8.6851483"><ele>185.0</ele><time>2026-04-11T09:05:45.388Z</time></trkpt><trkpt lat="45.553415" lon="8.68527"><ele>185.0</ele><time>2026-04-11T09:05:48.388Z</time></trkpt><trkpt lat="45.5534067" lon="8.6853617"><ele>185.0</ele><time>2026-04-11T09:05:50.385Z</time></trkpt><trkpt lat="45.5534133" lon="8.6854533"><ele>185.0</ele><time>2026-04-11T09:05:52.387Z</time></trkpt><trkpt lat="45.5534483" lon="8.685585"><ele>185.0</ele><time>2026-04-11T09:05:55.389Z</time></trkpt><trkpt lat="45.5534717" lon="8.685705"><ele>184.66666666666666</ele><time>2026-04-11T09:05:57.392Z</time></trkpt><trkpt lat="45.5534633" lon="8.685795"><ele>184.33333333333331</ele><time>2026-04-11T09:06:00.385Z</time></trkpt><trkpt lat="45.553445" lon="8.6858917"><ele>184.0</ele><time>2026-04-11T09:06:03.391Z</time></trkpt><trkpt lat="45.5534433" lon="8.6860033"><ele>183.66666666666666</ele><time>2026-04-11T09:06:05.389Z</time></trkpt><trkpt lat="45.5534367" lon="8.6861117"><ele>183.33333333333334</ele><time>2026-04-11T09:06:07.39Z</time></trkpt><trkpt lat="45.5534267" lon="8.6862233"><ele>183.0</ele><time>2026-04-11T09:06:10.388Z</time></trkpt><trkpt lat="45.5534433" lon="8.6864433"><ele>183.0</ele><time>2026-04-11T09:06:13.39Z</time></trkpt><trkpt lat="45.5534367" lon="8.6865917"><ele>183.0</ele><time>2026-04-11T09:06:15.389Z</time></trkpt><trkpt lat="45.5534283" lon="8.6867067"><ele>183.0</ele><time>2026-04-11T09:06:17.391Z</time></trkpt><trkpt lat="45.5534267" lon="8.6868167"><ele>183.0</ele><time>2026-04-11T09:06:20.391Z</time></trkpt><trkpt lat="45.5534317" lon="8.686935"><ele>183.0</ele><time>2026-04-11T09:06:23.389Z</time></trkpt><trkpt lat="45.55345" lon="8.6870583"><ele>183.0</ele><time>2026-04-11T09:06:26.391Z</time></trkpt><trkpt lat="45.55346" lon="8.687185"><ele>183.0</ele><time>2026-04-11T09:06:29.39Z</time></trkpt><trkpt lat="45.5534817" lon="8.68728"><ele>183.0</ele><time>2026-04-11T09:06:32.394Z</time></trkpt><trkpt lat="45.5534917" lon="8.68739"><ele>183.0</ele><time>2026-04-11T09:06:34.385Z</time></trkpt><trkpt lat="45.553495" lon="8.6874817"><ele>183.0</ele><time>2026-04-11T09:06:36.39Z</time></trkpt><trkpt lat="45.5535" lon="8.6875867"><ele>183.0</ele><time>2026-04-11T09:06:38.393Z</time></trkpt><trkpt lat="45.5535233" lon="8.6877"><ele>183.0</ele><time>2026-04-11T09:06:40.382Z</time></trkpt><trkpt lat="45.553535" lon="8.6878067"><ele>183.0</ele><time>2026-04-11T09:06:42.392Z</time></trkpt><trkpt lat="45.5535533" lon="8.68793"><ele>183.0</ele><time>2026-04-11T09:06:45.388Z</time></trkpt><trkpt lat="45.5535533" lon="8.6880583"><ele>183.0</ele><time>2026-04-11T09:06:48.389Z</time></trkpt><trkpt lat="45.5535483" lon="8.6881567"><ele>183.0</ele><time>2026-04-11T09:06:50.39Z</time></trkpt><trkpt lat="45.5535217" lon="8.6882783"><ele>183.0</ele><time>2026-04-11T09:06:52.389Z</time></trkpt><trkpt lat="45.5535133" lon="8.6884"><ele>183.0</ele><time>2026-04-11T09:06:55.387Z</time></trkpt><trkpt lat="45.5535233" lon="8.6885017"><ele>183.0</ele><time>2026-04-11T09:06:57.39Z</time></trkpt><trkpt lat="45.553545" lon="8.6886"><ele>182.60000000000002</ele><time>2026-04-11T09:07:00.392Z</time></trkpt><trkpt lat="45.5535617" lon="8.6887333"><ele>182.20000000000002</ele><time>2026-04-11T09:07:02.391Z</time></trkpt><trkpt lat="45.5535833" lon="8.68887"><ele>181.8</ele><time>2026-04-11T09:07:04.383Z</time></trkpt><trkpt lat="45.553605" lon="8.6890083"><ele>181.4</ele><time>2026-04-11T09:07:06.385Z</time></trkpt><trkpt lat="45.5536233" lon="8.68914"><ele>181.0</ele><time>2026-04-11T09:07:08.392Z</time></trkpt><trkpt lat="45.5536517" lon="8.6893167"><ele>181.16666666666669</ele><time>2026-04-11T09:07:10.383Z</time></trkpt><trkpt lat="45.5536833" lon="8.689445"><ele>181.33333333333334</ele><time>2026-04-11T09:07:12.39Z</time></trkpt><trkpt lat="45.55371" lon="8.68955"><ele>181.5</ele><time>2026-04-11T09:07:14.393Z</time></trkpt><trkpt lat="45.55373" lon="8.6896417"><ele>181.66666666666666</ele><time>2026-04-11T09:07:16.39Z</time></trkpt><trkpt lat="45.5537467" lon="8.68976"><ele>181.83333333333331</ele><time>2026-04-11T09:07:18.389Z</time></trkpt><trkpt lat="45.5537717" lon="8.68987"><ele>182.0</ele><time>2026-04-11T09:07:20.391Z</time></trkpt><trkpt lat="45.553805" lon="8.689975"><ele>181.0</ele><time>2026-04-11T09:07:22.388Z</time></trkpt><trkpt lat="45.5538367" lon="8.6900833"><ele>180.0</ele><time>2026-04-11T09:07:24.386Z</time></trkpt><trkpt lat="45.55386" lon="8.6901883"><ele>179.0</ele><time>2026-04-11T09:07:26.388Z</time></trkpt><trkpt lat="45.5538817" lon="8.6902933"><ele>178.0</ele><time>2026-04-11T09:07:28.383Z</time></trkpt><trkpt lat="45.5538833" lon="8.6904"><ele>177.0</ele><time>2026-04-11T09:07:30.385Z</time></trkpt><trkpt lat="45.55389" lon="8.6905267"><ele>176.0</ele><time>2026-04-11T09:07:32.386Z</time></trkpt><trkpt lat="45.5539067" lon="8.690615"><ele>175.60000000000002</ele><time>2026-04-11T09:07:34.389Z</time></trkpt><trkpt lat="45.5539383" lon="8.6907433"><ele>175.2</ele><time>2026-04-11T09:07:36.389Z</time></trkpt><trkpt lat="45.5539533" lon="8.6909"><ele>174.8</ele><time>2026-04-11T09:07:38.388Z</time></trkpt><trkpt lat="45.5539683" lon="8.6909983"><ele>174.39999999999998</ele><time>2026-04-11T09:07:39.39Z</time></trkpt><trkpt lat="45.553985" lon="8.6911583"><ele>174.0</ele><time>2026-04-11T09:07:41.389Z</time></trkpt><trkpt lat="45.553995" lon="8.6912867"><ele>174.0</ele><time>2026-04-11T09:07:43.386Z</time></trkpt><trkpt lat="45.5539983" lon="8.6914033"><ele>174.0</ele><time>2026-04-11T09:07:45.387Z</time></trkpt><trkpt lat="45.5540367" lon="8.6914967"><ele>174.0</ele><time>2026-04-11T09:07:47.388Z</time></trkpt><trkpt lat="45.5541033" lon="8.69156"><ele>174.0</ele><time>2026-04-11T09:07:49.388Z</time></trkpt><trkpt lat="45.554165" lon="8.6915817"><ele>174.0</ele><time>2026-04-11T09:07:51.389Z</time></trkpt><trkpt lat="45.5542283" lon="8.6916133"><ele>174.0</ele><time>2026-04-11T09:07:53.39Z</time></trkpt><trkpt lat="45.5542983" lon="8.6916733"><ele>174.0</ele><time>2026-04-11T09:07:55.388Z</time></trkpt><trkpt lat="45.554375" lon="8.691705"><ele>174.0</ele><time>2026-04-11T09:07:57.383Z</time></trkpt><trkpt lat="45.5544683" lon="8.6917083"><ele>174.0</ele><time>2026-04-11T09:08:00.39Z</time></trkpt><trkpt lat="45.554545" lon="8.6917633"><ele>174.0</ele><time>2026-04-11T09:08:03.39Z</time></trkpt><trkpt lat="45.554615" lon="8.6918067"><ele>174.0</ele><time>2026-04-11T09:08:05.389Z</time></trkpt><trkpt lat="45.5546833" lon="8.6918583"><ele>174.0</ele><time>2026-04-11T09:08:07.39Z</time></trkpt><trkpt lat="45.55474" lon="8.6919017"><ele>171.66666666666666</ele><time>2026-04-11T09:08:09.389Z</time></trkpt><trkpt lat="45.5548083" lon="8.6919617"><ele>169.33333333333334</ele><time>2026-04-11T09:08:11.4Z</time></trkpt><trkpt lat="45.55488" lon="8.69199"><ele>167.0</ele><time>2026-04-11T09:08:14.392Z</time></trkpt><trkpt lat="45.5549767" lon="8.6920733"><ele>164.66666666666669</ele><time>2026-04-11T09:08:16.386Z</time></trkpt><trkpt lat="45.5550667" lon="8.69208"><ele>162.33333333333334</ele><time>2026-04-11T09:08:19.386Z</time></trkpt><trkpt lat="45.5551417" lon="8.6921033"><ele>160.0</ele><time>2026-04-11T09:08:21.388Z</time></trkpt><trkpt lat="45.5552367" lon="8.6921017"><ele>160.0</ele><time>2026-04-11T09:08:23.388Z</time></trkpt><trkpt lat="45.5553217" lon="8.692095"><ele>160.0</ele><time>2026-04-11T09:08:25.389Z</time></trkpt><trkpt lat="45.55539" lon="8.6921017"><ele>160.0</ele><time>2026-04-11T09:08:27.386Z</time></trkpt><trkpt lat="45.55547" lon="8.6920717"><ele>160.0</ele><time>2026-04-11T09:08:29.39Z</time></trkpt><trkpt lat="45.5555733" lon="8.6920733"><ele>160.0</ele><time>2026-04-11T09:08:31.388Z</time></trkpt><trkpt lat="45.5556633" lon="8.6920667"><ele>160.0</ele><time>2026-04-11T09:08:33.379Z</time></trkpt><trkpt lat="45.5557283" lon="8.6920633"><ele>159.0</ele><time>2026-04-11T09:08:35.384Z</time></trkpt><trkpt lat="45.5558083" lon="8.6920517"><ele>158.0</ele><time>2026-04-11T09:08:37.388Z</time></trkpt><trkpt lat="45.5559017" lon="8.6920367"><ele>157.0</ele><time>2026-04-11T09:08:39.388Z</time></trkpt><trkpt lat="45.55599" lon="8.6920533"><ele>156.0</ele><time>2026-04-11T09:08:41.387Z</time></trkpt><trkpt lat="45.5561017" lon="8.6920667"><ele>155.0</ele><time>2026-04-11T09:08:43.385Z</time></trkpt><trkpt lat="45.5561783" lon="8.6920817"><ele>155.28571428571428</ele><time>2026-04-11T09:08:45.388Z</time></trkpt><trkpt lat="45.5562417" lon="8.6920783"><ele>155.57142857142856</ele><time>2026-04-11T09:08:47.387Z</time></trkpt><trkpt lat="45.5563117" lon="8.6920517"><ele>155.85714285714283</ele><time>2026-04-11T09:08:49.388Z</time></trkpt><trkpt lat="45.556375" lon="8.6919983"><ele>156.14285714285714</ele><time>2026-04-11T09:08:52.387Z</time></trkpt><trkpt lat="45.556415" lon="8.6919183"><ele>156.42857142857142</ele><time>2026-04-11T09:08:56.39Z</time></trkpt><trkpt lat="45.556475" lon="8.6918417"><ele>156.7142857142857</ele><time>2026-04-11T09:08:59.388Z</time></trkpt><trkpt lat="45.5565217" lon="8.6917433"><ele>157.0</ele><time>2026-04-11T09:09:01.389Z</time></trkpt><trkpt lat="45.5565783" lon="8.6916533"><ele>157.0</ele><time>2026-04-11T09:09:04.386Z</time></trkpt><trkpt lat="45.556645" lon="8.691585"><ele>157.0</ele><time>2026-04-11T09:09:06.389Z</time></trkpt><trkpt lat="45.5566967" lon="8.691515"><ele>157.0</ele><time>2026-04-11T09:09:09.38Z</time></trkpt><trkpt lat="45.556755" lon="8.6914467"><ele>157.0</ele><time>2026-04-11T09:09:11.391Z</time></trkpt><trkpt lat="45.5568217" lon="8.691365"><ele>157.0</ele><time>2026-04-11T09:09:14.39Z</time></trkpt><trkpt lat="45.5568717" lon="8.6912783"><ele>157.0</ele><time>2026-04-11T09:09:17.39Z</time></trkpt><trkpt lat="45.5569283" lon="8.6911833"><ele>156.85714285714283</ele><time>2026-04-11T09:09:20.392Z</time></trkpt><trkpt lat="45.5569867" lon="8.69109"><ele>156.71428571428572</ele><time>2026-04-11T09:09:23.388Z</time></trkpt><trkpt lat="45.5570267" lon="8.6910167"><ele>156.57142857142856</ele><time>2026-04-11T09:09:27.392Z</time></trkpt><trkpt lat="45.557045" lon="8.690925"><ele>156.42857142857142</ele><time>2026-04-11T09:09:30.39Z</time></trkpt><trkpt lat="45.5570783" lon="8.690835"><ele>156.28571428571428</ele><time>2026-04-11T09:09:33.388Z</time></trkpt><trkpt lat="45.55711" lon="8.6907383"><ele>156.14285714285714</ele><time>2026-04-11T09:09:37.389Z</time></trkpt><trkpt lat="45.55717" lon="8.69068"><ele>156.0</ele><time>2026-04-11T09:09:40.388Z</time></trkpt><trkpt lat="45.5572433" lon="8.6906017"><ele>155.33333333333334</ele><time>2026-04-11T09:09:43.389Z</time></trkpt><trkpt lat="45.55729" lon="8.6905167"><ele>154.66666666666666</ele><time>2026-04-11T09:09:45.389Z</time></trkpt><trkpt lat="45.5573367" lon="8.6904417"><ele>154.0</ele><time>2026-04-11T09:09:47.384Z</time></trkpt><trkpt lat="45.5573917" lon="8.6903517"><ele>153.33333333333331</ele><time>2026-04-11T09:09:50.389Z</time></trkpt><trkpt lat="45.5574283" lon="8.6902567"><ele>152.66666666666666</ele><time>2026-04-11T09:09:52.392Z</time></trkpt><trkpt lat="45.5574667" lon="8.6901833"><ele>152.0</ele><time>2026-04-11T09:09:54.391Z</time></trkpt><trkpt lat="45.5575267" lon="8.6900783"><ele>152.0</ele><time>2026-04-11T09:09:57.393Z</time></trkpt><trkpt lat="45.5576083" lon="8.689975"><ele>152.0</ele><time>2026-04-11T09:10:00.389Z</time></trkpt><trkpt lat="45.5576567" lon="8.68989"><ele>152.0</ele><time>2026-04-11T09:10:03.388Z</time></trkpt><trkpt lat="45.5577033" lon="8.6897667"><ele>152.0</ele><time>2026-04-11T09:10:06.389Z</time></trkpt><trkpt lat="45.5577383" lon="8.6896883"><ele>152.0</ele><time>2026-04-11T09:10:08.383Z</time></trkpt><trkpt lat="45.5578067" lon="8.6896233"><ele>152.0</ele><time>2026-04-11T09:10:12.394Z</time></trkpt><trkpt lat="45.5578583" lon="8.68954"><ele>151.7142857142857</ele><time>2026-04-11T09:10:14.392Z</time></trkpt><trkpt lat="45.5579117" lon="8.6894833"><ele>151.42857142857144</ele><time>2026-04-11T09:10:16.39Z</time></trkpt><trkpt lat="45.5579933" lon="8.6894383"><ele>151.14285714285714</ele><time>2026-04-11T09:10:19.389Z</time></trkpt><trkpt lat="45.5580533" lon="8.6894"><ele>150.85714285714283</ele><time>2026-04-11T09:10:21.389Z</time></trkpt><trkpt lat="45.5581017" lon="8.689335"><ele>150.57142857142856</ele><time>2026-04-11T09:10:23.389Z</time></trkpt><trkpt lat="45.5581433" lon="8.6892667"><ele>150.28571428571428</ele><time>2026-04-11T09:10:25.388Z</time></trkpt><trkpt lat="45.5582067" lon="8.68923"><ele>150.0</ele><time>2026-04-11T09:10:28.391Z</time></trkpt><trkpt lat="45.55827" lon="8.6891917"><ele>150.33333333333334</ele><time>2026-04-11T09:10:32.39Z</time></trkpt><trkpt lat="45.5583533" lon="8.6891533"><ele>150.66666666666666</ele><time>2026-04-11T09:10:36.389Z</time></trkpt><trkpt lat="45.55842" lon="8.6891117"><ele>151.0</ele><time>2026-04-11T09:10:39.388Z</time></trkpt><trkpt lat="45.558495" lon="8.6890833"><ele>151.33333333333331</ele><time>2026-04-11T09:10:42.39Z</time></trkpt><trkpt lat="45.5585767" lon="8.6890333"><ele>151.66666666666666</ele><time>2026-04-11T09:10:45.39Z</time></trkpt><trkpt lat="45.558665" lon="8.6889733"><ele>152.0</ele><time>2026-04-11T09:10:48.385Z</time></trkpt><trkpt lat="45.5587633" lon="8.68892"><ele>152.0</ele><time>2026-04-11T09:10:51.388Z</time></trkpt><trkpt lat="45.5588383" lon="8.6888633"><ele>152.0</ele><time>2026-04-11T09:10:53.382Z</time></trkpt><trkpt lat="45.5589017" lon="8.6888"><ele>152.0</ele><time>2026-04-11T09:10:55.388Z</time></trkpt><trkpt lat="45.5589733" lon="8.688745"><ele>152.0</ele><time>2026-04-11T09:10:57.397Z</time></trkpt><trkpt lat="45.55904" lon="8.68867"><ele>152.0</ele><time>2026-04-11T09:10:59.392Z</time></trkpt><trkpt lat="45.5591083" lon="8.688625"><ele>152.0</ele><time>2026-04-11T09:11:01.389Z</time></trkpt><trkpt lat="45.5591733" lon="8.6885517"><ele>152.66666666666666</ele><time>2026-04-11T09:11:04.388Z</time></trkpt><trkpt lat="45.55925" lon="8.6884883"><ele>153.33333333333331</ele><time>2026-04-11T09:11:07.39Z</time></trkpt><trkpt lat="45.5593117" lon="8.6884467"><ele>154.0</ele><time>2026-04-11T09:11:09.384Z</time></trkpt><trkpt lat="45.5594017" lon="8.68839"><ele>154.66666666666666</ele><time>2026-04-11T09:11:12.39Z</time></trkpt><trkpt lat="45.5594667" lon="8.68831"><ele>155.33333333333334</ele><time>2026-04-11T09:11:15.39Z</time></trkpt><trkpt lat="45.5595117" lon="8.68823"><ele>156.0</ele><time>2026-04-11T09:11:17.391Z</time></trkpt><trkpt lat="45.55956" lon="8.6881433"><ele>156.0</ele><time>2026-04-11T09:11:20.389Z</time></trkpt><trkpt lat="45.559625" lon="8.68805"><ele>156.0</ele><time>2026-04-11T09:11:22.384Z</time></trkpt><trkpt lat="45.559695" lon="8.6879817"><ele>156.0</ele><time>2026-04-11T09:11:25.381Z</time></trkpt><trkpt lat="45.55974" lon="8.6878783"><ele>156.0</ele><time>2026-04-11T09:11:28.388Z</time></trkpt><trkpt lat="45.5597817" lon="8.6877967"><ele>156.0</ele><time>2026-04-11T09:11:30.391Z</time></trkpt><trkpt lat="45.5598233" lon="8.6877067"><ele>156.0</ele><time>2026-04-11T09:11:34.389Z</time></trkpt><trkpt lat="45.5598683" lon="8.687595"><ele>156.33333333333334</ele><time>2026-04-11T09:11:38.39Z</time></trkpt><trkpt lat="45.5599183" lon="8.6874967"><ele>156.66666666666666</ele><time>2026-04-11T09:11:40.388Z</time></trkpt><trkpt lat="45.55996" lon="8.687415"><ele>157.0</ele><time>2026-04-11T09:11:42.39Z</time></trkpt><trkpt lat="45.5600167" lon="8.6873383"><ele>157.33333333333331</ele><time>2026-04-11T09:11:45.389Z</time></trkpt><trkpt lat="45.5600767" lon="8.68725"><ele>157.66666666666666</ele><time>2026-04-11T09:11:48.384Z</time></trkpt><trkpt lat="45.560125" lon="8.6871583"><ele>158.0</ele><time>2026-04-11T09:11:51.389Z</time></trkpt><trkpt lat="45.560165" lon="8.6870333"><ele>158.00000000000003</ele><time>2026-04-11T09:11:57.388Z</time></trkpt><trkpt lat="45.56016" lon="8.68693"><ele>158.0</ele><time>2026-04-11T09:12:01.387Z</time></trkpt><trkpt lat="45.56014" lon="8.6868233"><ele>158.0</ele><time>2026-04-11T09:12:05.388Z</time></trkpt><trkpt lat="45.56012" lon="8.6867167"><ele>158.0</ele><time>2026-04-11T09:12:08.388Z</time></trkpt><trkpt lat="45.5601333" lon="8.686625"><ele>158.0</ele><time>2026-04-11T09:12:12.388Z</time></trkpt><trkpt lat="45.5601267" lon="8.6865283"><ele>158.00000000000003</ele><time>2026-04-11T09:12:16.389Z</time></trkpt><trkpt lat="45.56013" lon="8.6864267"><ele>158.0</ele><time>2026-04-11T09:12:19.388Z</time></trkpt><trkpt lat="45.5601367" lon="8.6863333"><ele>158.57142857142858</ele><time>2026-04-11T09:12:22.388Z</time></trkpt><trkpt lat="45.5601417" lon="8.6862283"><ele>159.14285714285714</ele><time>2026-04-11T09:12:25.39Z</time></trkpt><trkpt lat="45.5601483" lon="8.686135"><ele>159.71428571428572</ele><time>2026-04-11T09:12:28.389Z</time></trkpt><trkpt lat="45.560155" lon="8.686045"><ele>160.28571428571428</ele><time>2026-04-11T09:12:31.388Z</time></trkpt><trkpt lat="45.5601833" lon="8.6859633"><ele>160.85714285714286</ele><time>2026-04-11T09:12:34.39Z</time></trkpt><trkpt lat="45.56022" lon="8.6858667"><ele>161.42857142857144</ele><time>2026-04-11T09:12:39.389Z</time></trkpt><trkpt lat="45.5602533" lon="8.6857817"><ele>162.0</ele><time>2026-04-11T09:12:43.391Z</time></trkpt><trkpt lat="45.5603017" lon="8.685695"><ele>162.85714285714286</ele><time>2026-04-11T09:12:48.388Z</time></trkpt><trkpt lat="45.5603417" lon="8.6856067"><ele>163.71428571428572</ele><time>2026-04-11T09:12:52.388Z</time></trkpt><trkpt lat="45.560385" lon="8.6855317"><ele>164.57142857142856</ele><time>2026-04-11T09:12:57.388Z</time></trkpt><trkpt lat="45.56044" lon="8.6854317"><ele>165.42857142857144</ele><time>2026-04-11T09:13:03.39Z</time></trkpt><trkpt lat="45.5604833" lon="8.6853617"><ele>166.28571428571428</ele><time>2026-04-11T09:13:06.386Z</time></trkpt><trkpt lat="45.560535" lon="8.685305"><ele>167.14285714285714</ele><time>2026-04-11T09:13:09.388Z</time></trkpt><trkpt lat="45.560585" lon="8.685245"><ele>168.0</ele><time>2026-04-11T09:13:12.387Z</time></trkpt><trkpt lat="45.560665" lon="8.6851817"><ele>169.33333333333334</ele><time>2026-04-11T09:13:19.388Z</time></trkpt><trkpt lat="45.5607283" lon="8.6851217"><ele>170.66666666666666</ele><time>2026-04-11T09:13:23.387Z</time></trkpt><trkpt lat="45.5608033" lon="8.6851017"><ele>172.0</ele><time>2026-04-11T09:13:28.387Z</time></trkpt><trkpt lat="45.5608967" lon="8.6850767"><ele>173.33333333333331</ele><time>2026-04-11T09:13:33.386Z</time></trkpt><trkpt lat="45.5609667" lon="8.6850383"><ele>174.66666666666666</ele><time>2026-04-11T09:13:37.387Z</time></trkpt><trkpt lat="45.5610317" lon="8.6850267"><ele>176.0</ele><time>2026-04-11T09:13:40.386Z</time></trkpt><trkpt lat="45.56111" lon="8.6850017"><ele>176.0</ele><time>2026-04-11T09:13:43.383Z</time></trkpt><trkpt lat="45.5611683" lon="8.6849617"><ele>176.0</ele><time>2026-04-11T09:13:46.386Z</time></trkpt><trkpt lat="45.5612367" lon="8.68492"><ele>176.0</ele><time>2026-04-11T09:13:50.389Z</time></trkpt><trkpt lat="45.5612983" lon="8.684885"><ele>176.0</ele><time>2026-04-11T09:13:53.387Z</time></trkpt><trkpt lat="45.5613617" lon="8.6848517"><ele>176.0</ele><time>2026-04-11T09:13:57.384Z</time></trkpt><trkpt lat="45.561445" lon="8.68482"><ele>176.0</ele><time>2026-04-11T09:14:04.387Z</time></trkpt><trkpt lat="45.5615233" lon="8.6848"><ele>176.0</ele><time>2026-04-11T09:14:07.387Z</time></trkpt><trkpt lat="45.561625" lon="8.6847733"><ele>175.57142857142858</ele><time>2026-04-11T09:14:13.387Z</time></trkpt><trkpt lat="45.561705" lon="8.684745"><ele>175.14285714285714</ele><time>2026-04-11T09:14:16.389Z</time></trkpt><trkpt lat="45.5617933" lon="8.684725"><ele>174.71428571428572</ele><time>2026-04-11T09:14:19.386Z</time></trkpt><trkpt lat="45.56186" lon="8.6847383"><ele>174.28571428571428</ele><time>2026-04-11T09:14:21.384Z</time></trkpt><trkpt lat="45.5619233" lon="8.684755"><ele>173.85714285714286</ele><time>2026-04-11T09:14:24.4Z</time></trkpt><trkpt lat="45.5619983" lon="8.6847367"><ele>173.42857142857142</ele><time>2026-04-11T09:14:28.388Z</time></trkpt><trkpt lat="45.5620633" lon="8.684715"><ele>173.0</ele><time>2026-04-11T09:14:32.391Z</time></trkpt><trkpt lat="45.56213" lon="8.684695"><ele>172.57142857142856</ele><time>2026-04-11T09:14:35.387Z</time></trkpt><trkpt lat="45.5621933" lon="8.6846767"><ele>172.14285714285717</ele><time>2026-04-11T09:14:38.388Z</time></trkpt><trkpt lat="45.5622717" lon="8.68466"><ele>171.71428571428572</ele><time>2026-04-11T09:14:42.386Z</time></trkpt><trkpt lat="45.562345" lon="8.6846083"><ele>171.28571428571428</ele><time>2026-04-11T09:14:46.387Z</time></trkpt><trkpt lat="45.5624033" lon="8.6845733"><ele>170.85714285714283</ele><time>2026-04-11T09:14:49.387Z</time></trkpt><trkpt lat="45.5624733" lon="8.6845333"><ele>170.42857142857144</ele><time>2026-04-11T09:14:53.388Z</time></trkpt><trkpt lat="45.5625417" lon="8.6844917"><ele>170.0</ele><time>2026-04-11T09:14:57.387Z</time></trkpt><trkpt lat="45.5626017" lon="8.6844483"><ele>169.83333333333331</ele><time>2026-04-11T09:15:01.387Z</time></trkpt><trkpt lat="45.562665" lon="8.6844"><ele>169.66666666666666</ele><time>2026-04-11T09:15:04.388Z</time></trkpt><trkpt lat="45.5627167" lon="8.684325"><ele>169.5</ele><time>2026-04-11T09:15:07.388Z</time></trkpt><trkpt lat="45.56278" lon="8.6842533"><ele>169.33333333333334</ele><time>2026-04-11T09:15:10.384Z</time></trkpt><trkpt lat="45.56284" lon="8.6842067"><ele>169.16666666666669</ele><time>2026-04-11T09:15:13.388Z</time></trkpt><trkpt lat="45.5629" lon="8.68414"><ele>169.0</ele><time>2026-04-11T09:15:17.39Z</time></trkpt><trkpt lat="45.5629633" lon="8.6840717"><ele>169.0</ele><time>2026-04-11T09:15:21.387Z</time></trkpt><trkpt lat="45.5630317" lon="8.6840133"><ele>169.0</ele><time>2026-04-11T09:15:25.387Z</time></trkpt><trkpt lat="45.5630917" lon="8.6839533"><ele>169.0</ele><time>2026-04-11T09:15:28.385Z</time></trkpt><trkpt lat="45.5631483" lon="8.683905"><ele>169.0</ele><time>2026-04-11T09:15:31.388Z</time></trkpt><trkpt lat="45.5632133" lon="8.6838617"><ele>169.0</ele><time>2026-04-11T09:15:35.387Z</time></trkpt><trkpt lat="45.5632683" lon="8.6838133"><ele>169.0</ele><time>2026-04-11T09:15:38.389Z</time></trkpt><trkpt lat="45.56333" lon="8.6837617"><ele>169.0</ele><time>2026-04-11T09:15:41.386Z</time></trkpt><trkpt lat="45.5633883" lon="8.6837"><ele>169.0</ele><time>2026-04-11T09:15:44.386Z</time></trkpt><trkpt lat="45.5634533" lon="8.68365"><ele>169.0</ele><time>2026-04-11T09:15:48.387Z</time></trkpt><trkpt lat="45.5635283" lon="8.6836167"><ele>169.0</ele><time>2026-04-11T09:15:52.388Z</time></trkpt><trkpt lat="45.56359" lon="8.6835483"><ele>169.0</ele><time>2026-04-11T09:15:56.387Z</time></trkpt><trkpt lat="45.5636433" lon="8.6834867"><ele>169.0</ele><time>2026-04-11T09:15:59.389Z</time></trkpt><trkpt lat="45.563695" lon="8.6834333"><ele>169.0</ele><time>2026-04-11T09:16:02.382Z</time></trkpt><trkpt lat="45.5637683" lon="8.6833767"><ele>169.0</ele><time>2026-04-11T09:16:06.387Z</time></trkpt><trkpt lat="45.5638267" lon="8.68333"><ele>169.28571428571428</ele><time>2026-04-11T09:16:09.388Z</time></trkpt><trkpt lat="45.5638917" lon="8.68329"><ele>169.57142857142856</ele><time>2026-04-11T09:16:12.387Z</time></trkpt><trkpt lat="45.5639483" lon="8.683235"><ele>169.85714285714283</ele><time>2026-04-11T09:16:15.389Z</time></trkpt><trkpt lat="45.5640117" lon="8.68316"><ele>170.14285714285714</ele><time>2026-04-11T09:16:18.39Z</time></trkpt><trkpt lat="45.5640733" lon="8.6831067"><ele>170.42857142857142</ele><time>2026-04-11T09:16:21.389Z</time></trkpt><trkpt lat="45.5641183" lon="8.6830317"><ele>170.7142857142857</ele><time>2026-04-11T09:16:24.389Z</time></trkpt><trkpt lat="45.5641833" lon="8.6829583"><ele>171.0</ele><time>2026-04-11T09:16:28.384Z</time></trkpt><trkpt lat="45.5642567" lon="8.682905"><ele>170.99999999999997</ele><time>2026-04-11T09:16:32.388Z</time></trkpt><trkpt lat="45.56433" lon="8.68286"><ele>171.0</ele><time>2026-04-11T09:16:36.388Z</time></trkpt><trkpt lat="45.5644017" lon="8.68281"><ele>171.0</ele><time>2026-04-11T09:16:39.385Z</time></trkpt><trkpt lat="45.5644667" lon="8.6827617"><ele>171.0</ele><time>2026-04-11T09:16:42.387Z</time></trkpt><trkpt lat="45.5645283" lon="8.6827333"><ele>171.0</ele><time>2026-04-11T09:16:45.39Z</time></trkpt><trkpt lat="45.564605" lon="8.6827083"><ele>170.99999999999997</ele><time>2026-04-11T09:16:49.393Z</time></trkpt><trkpt lat="45.5646667" lon="8.6826867"><ele>171.0</ele><time>2026-04-11T09:16:52.388Z</time></trkpt><trkpt lat="45.5647367" lon="8.6826517"><ele>172.16666666666666</ele><time>2026-04-11T09:16:56.386Z</time></trkpt><trkpt lat="45.5648033" lon="8.6826083"><ele>173.33333333333334</ele><time>2026-04-11T09:17:00.387Z</time></trkpt><trkpt lat="45.5648683" lon="8.6825267"><ele>174.5</ele><time>2026-04-11T09:17:04.388Z</time></trkpt><trkpt lat="45.56492" lon="8.6824533"><ele>175.66666666666669</ele><time>2026-04-11T09:17:07.381Z</time></trkpt><trkpt lat="45.564975" lon="8.6823733"><ele>176.83333333333334</ele><time>2026-04-11T09:17:11.385Z</time></trkpt><trkpt lat="45.5650233" lon="8.6823067"><ele>178.0</ele><time>2026-04-11T09:17:15.383Z</time></trkpt><trkpt lat="45.565085" lon="8.6822417"><ele>177.99999999999997</ele><time>2026-04-11T09:17:19.388Z</time></trkpt><trkpt lat="45.5651367" lon="8.682185"><ele>178.0</ele><time>2026-04-11T09:17:23.384Z</time></trkpt><trkpt lat="45.565175" lon="8.6821083"><ele>178.0</ele><time>2026-04-11T09:17:27.39Z</time></trkpt><trkpt lat="45.5652033" lon="8.682015"><ele>178.0</ele><time>2026-04-11T09:17:30.389Z</time></trkpt><trkpt lat="45.5652317" lon="8.68192"><ele>178.0</ele><time>2026-04-11T09:17:34.387Z</time></trkpt><trkpt lat="45.5652433" lon="8.6818267"><ele>177.99999999999997</ele><time>2026-04-11T09:17:38.39Z</time></trkpt><trkpt lat="45.5652733" lon="8.68172"><ele>178.0</ele><time>2026-04-11T09:17:42.387Z</time></trkpt><trkpt lat="45.5653017" lon="8.681625"><ele>178.14285714285714</ele><time>2026-04-11T09:17:46.382Z</time></trkpt><trkpt lat="45.5653133" lon="8.6815183"><ele>178.28571428571428</ele><time>2026-04-11T09:17:50.388Z</time></trkpt><trkpt lat="45.5653233" lon="8.681425"><ele>178.42857142857144</ele><time>2026-04-11T09:17:53.389Z</time></trkpt><trkpt lat="45.565365" lon="8.6813467"><ele>178.57142857142856</ele><time>2026-04-11T09:17:57.389Z</time></trkpt><trkpt lat="45.5654" lon="8.6812617"><ele>178.71428571428572</ele><time>2026-04-11T09:18:00.388Z</time></trkpt><trkpt lat="45.5654117" lon="8.6811667"><ele>178.85714285714286</ele><time>2026-04-11T09:18:03.389Z</time></trkpt><trkpt lat="45.5654517" lon="8.6810683"><ele>179.0</ele><time>2026-04-11T09:18:07.39Z</time></trkpt><trkpt lat="45.5654867" lon="8.6809667"><ele>179.66666666666666</ele><time>2026-04-11T09:18:13.392Z</time></trkpt><trkpt lat="45.56552" lon="8.6808717"><ele>180.33333333333331</ele><time>2026-04-11T09:18:17.386Z</time></trkpt><trkpt lat="45.565545" lon="8.6807483"><ele>181.0</ele><time>2026-04-11T09:18:20.388Z</time></trkpt><trkpt lat="45.5655783" lon="8.6806367"><ele>181.66666666666666</ele><time>2026-04-11T09:18:23.392Z</time></trkpt><trkpt lat="45.565615" lon="8.680555"><ele>182.33333333333334</ele><time>2026-04-11T09:18:26.387Z</time></trkpt><trkpt lat="45.5656667" lon="8.6804717"><ele>183.0</ele><time>2026-04-11T09:18:31.386Z</time></trkpt><trkpt lat="45.5656967" lon="8.6803567"><ele>183.0</ele><time>2026-04-11T09:18:34.387Z</time></trkpt><trkpt lat="45.565725" lon="8.680275"><ele>183.0</ele><time>2026-04-11T09:18:37.391Z</time></trkpt><trkpt lat="45.5657617" lon="8.6801717"><ele>183.0</ele><time>2026-04-11T09:18:40.388Z</time></trkpt><trkpt lat="45.5657967" lon="8.6800683"><ele>183.0</ele><time>2026-04-11T09:18:43.386Z</time></trkpt><trkpt lat="45.56583" lon="8.6799683"><ele>183.0</ele><time>2026-04-11T09:18:46.387Z</time></trkpt><trkpt lat="45.5658617" lon="8.6798717"><ele>183.0</ele><time>2026-04-11T09:18:49.387Z</time></trkpt><trkpt lat="45.5658883" lon="8.6797817"><ele>183.0</ele><time>2026-04-11T09:18:51.389Z</time></trkpt><trkpt lat="45.565915" lon="8.6796817"><ele>183.14285714285714</ele><time>2026-04-11T09:18:55.389Z</time></trkpt><trkpt lat="45.5659333" lon="8.6795917"><ele>183.28571428571428</ele><time>2026-04-11T09:18:58.389Z</time></trkpt><trkpt lat="45.56595" lon="8.6795017"><ele>183.42857142857144</ele><time>2026-04-11T09:19:01.389Z</time></trkpt><trkpt lat="45.5659717" lon="8.679385"><ele>183.57142857142856</ele><time>2026-04-11T09:19:05.387Z</time></trkpt><trkpt lat="45.5659883" lon="8.6792817"><ele>183.7142857142857</ele><time>2026-04-11T09:19:08.389Z</time></trkpt><trkpt lat="45.566005" lon="8.6791767"><ele>183.85714285714286</ele><time>2026-04-11T09:19:11.387Z</time></trkpt><trkpt lat="45.5660283" lon="8.6790617"><ele>184.0</ele><time>2026-04-11T09:19:15.388Z</time></trkpt><trkpt lat="45.5660417" lon="8.6789583"><ele>184.0</ele><time>2026-04-11T09:19:18.388Z</time></trkpt><trkpt lat="45.5660567" lon="8.678835"><ele>184.0</ele><time>2026-04-11T09:19:21.386Z</time></trkpt><trkpt lat="45.5660867" lon="8.6787317"><ele>184.0</ele><time>2026-04-11T09:19:24.388Z</time></trkpt><trkpt lat="45.566085" lon="8.6786117"><ele>184.0</ele><time>2026-04-11T09:19:28.384Z</time></trkpt><trkpt lat="45.566095" lon="8.6785133"><ele>184.0</ele><time>2026-04-11T09:19:31.381Z</time></trkpt><trkpt lat="45.5660933" lon="8.67841"><ele>184.0</ele><time>2026-04-11T09:19:34.389Z</time></trkpt><trkpt lat="45.56611" lon="8.6782867"><ele>183.85714285714286</ele><time>2026-04-11T09:19:37.388Z</time></trkpt><trkpt lat="45.56613" lon="8.678195"><ele>183.7142857142857</ele><time>2026-04-11T09:19:40.393Z</time></trkpt><trkpt lat="45.5661433" lon="8.6781"><ele>183.57142857142856</ele><time>2026-04-11T09:19:43.39Z</time></trkpt><trkpt lat="45.5661567" lon="8.6780017"><ele>183.42857142857144</ele><time>2026-04-11T09:19:46.391Z</time></trkpt><trkpt lat="45.5661667" lon="8.677895"><ele>183.28571428571428</ele><time>2026-04-11T09:19:49.39Z</time></trkpt><trkpt lat="45.56618" lon="8.6777967"><ele>183.14285714285714</ele><time>2026-04-11T09:19:52.389Z</time></trkpt><trkpt lat="45.5661917" lon="8.67769"><ele>183.0</ele><time>2026-04-11T09:19:55.39Z</time></trkpt><trkpt lat="45.5662033" lon="8.6775933"><ele>182.85714285714286</ele><time>2026-04-11T09:19:58.387Z</time></trkpt><trkpt lat="45.566215" lon="8.6775"><ele>182.71428571428572</ele><time>2026-04-11T09:20:01.388Z</time></trkpt><trkpt lat="45.5662267" lon="8.677405"><ele>182.57142857142856</ele><time>2026-04-11T09:20:05.389Z</time></trkpt><trkpt lat="45.566235" lon="8.6772967"><ele>182.42857142857144</ele><time>2026-04-11T09:20:09.386Z</time></trkpt><trkpt lat="45.5662333" lon="8.6771917"><ele>182.28571428571428</ele><time>2026-04-11T09:20:14.381Z</time></trkpt><trkpt lat="45.56624" lon="8.6770833"><ele>182.14285714285714</ele><time>2026-04-11T09:20:17.382Z</time></trkpt><trkpt lat="45.56625" lon="8.6769717"><ele>182.0</ele><time>2026-04-11T09:20:20.386Z</time></trkpt><trkpt lat="45.5662683" lon="8.676885"><ele>182.0</ele><time>2026-04-11T09:20:22.385Z</time></trkpt><trkpt lat="45.5663" lon="8.67678"><ele>182.0</ele><time>2026-04-11T09:20:24.388Z</time></trkpt><trkpt lat="45.5663433" lon="8.6766583"><ele>182.0</ele><time>2026-04-11T09:20:26.388Z</time></trkpt><trkpt lat="45.5663883" lon="8.6765317"><ele>182.0</ele><time>2026-04-11T09:20:28.385Z</time></trkpt><trkpt lat="45.566435" lon="8.6764233"><ele>182.0</ele><time>2026-04-11T09:20:30.387Z</time></trkpt><trkpt lat="45.5664833" lon="8.6763"><ele>182.0</ele><time>2026-04-11T09:20:32.386Z</time></trkpt><trkpt lat="45.56652" lon="8.6761833"><ele>182.0</ele><time>2026-04-11T09:20:34.387Z</time></trkpt><trkpt lat="45.566555" lon="8.6760583"><ele>182.0</ele><time>2026-04-11T09:20:36.386Z</time></trkpt><trkpt lat="45.5665967" lon="8.675935"><ele>182.0</ele><time>2026-04-11T09:20:38.389Z</time></trkpt><trkpt lat="45.5666317" lon="8.6758183"><ele>182.0</ele><time>2026-04-11T09:20:40.388Z</time></trkpt><trkpt lat="45.56666" lon="8.6756933"><ele>182.16666666666666</ele><time>2026-04-11T09:20:42.392Z</time></trkpt><trkpt lat="45.5666867" lon="8.67558"><ele>182.33333333333331</ele><time>2026-04-11T09:20:44.386Z</time></trkpt><trkpt lat="45.5667083" lon="8.675475"><ele>182.5</ele><time>2026-04-11T09:20:46.39Z</time></trkpt><trkpt lat="45.5667283" lon="8.6753517"><ele>182.66666666666666</ele><time>2026-04-11T09:20:49.383Z</time></trkpt><trkpt lat="45.5667483" lon="8.6752217"><ele>182.83333333333334</ele><time>2026-04-11T09:20:52.387Z</time></trkpt><trkpt lat="45.5667717" lon="8.6751317"><ele>183.0</ele><time>2026-04-11T09:20:54.389Z</time></trkpt><trkpt lat="45.5667983" lon="8.6750433"><ele>183.83333333333334</ele><time>2026-04-11T09:20:56.389Z</time></trkpt><trkpt lat="45.5668167" lon="8.6749533"><ele>184.66666666666666</ele><time>2026-04-11T09:20:58.388Z</time></trkpt><trkpt lat="45.5668383" lon="8.6748283"><ele>185.5</ele><time>2026-04-11T09:21:01.39Z</time></trkpt><trkpt lat="45.566865" lon="8.6747017"><ele>186.33333333333331</ele><time>2026-04-11T09:21:04.388Z</time></trkpt><trkpt lat="45.5668883" lon="8.67458"><ele>187.16666666666666</ele><time>2026-04-11T09:21:07.389Z</time></trkpt><trkpt lat="45.5669217" lon="8.6744633"><ele>188.0</ele><time>2026-04-11T09:21:10.387Z</time></trkpt><trkpt lat="45.5669583" lon="8.6743483"><ele>188.66666666666666</ele><time>2026-04-11T09:21:13.39Z</time></trkpt><trkpt lat="45.566985" lon="8.6742267"><ele>189.33333333333331</ele><time>2026-04-11T09:21:16.39Z</time></trkpt><trkpt lat="45.5670167" lon="8.6741233"><ele>190.0</ele><time>2026-04-11T09:21:19.391Z</time></trkpt><trkpt lat="45.567045" lon="8.6740267"><ele>190.66666666666666</ele><time>2026-04-11T09:21:22.383Z</time></trkpt><trkpt lat="45.567065" lon="8.67394"><ele>191.33333333333334</ele><time>2026-04-11T09:21:24.391Z</time></trkpt><trkpt lat="45.5670933" lon="8.6738567"><ele>192.0</ele><time>2026-04-11T09:21:26.393Z</time></trkpt><trkpt lat="45.56711" lon="8.67373"><ele>191.99999999999997</ele><time>2026-04-11T09:21:28.388Z</time></trkpt><trkpt lat="45.5671233" lon="8.6736383"><ele>192.0</ele><time>2026-04-11T09:21:30.39Z</time></trkpt><trkpt lat="45.5671417" lon="8.6735483"><ele>192.0</ele><time>2026-04-11T09:21:32.391Z</time></trkpt><trkpt lat="45.56718" lon="8.673455"><ele>192.0</ele><time>2026-04-11T09:21:34.386Z</time></trkpt><trkpt lat="45.5672417" lon="8.6733667"><ele>192.0</ele><time>2026-04-11T09:21:37.388Z</time></trkpt><trkpt lat="45.567285" lon="8.6732767"><ele>191.99999999999997</ele><time>2026-04-11T09:21:40.388Z</time></trkpt><trkpt lat="45.567325" lon="8.6731933"><ele>192.0</ele><time>2026-04-11T09:21:43.39Z</time></trkpt><trkpt lat="45.56737" lon="8.6731267"><ele>192.28571428571428</ele><time>2026-04-11T09:21:45.392Z</time></trkpt><trkpt lat="45.5674133" lon="8.673055"><ele>192.57142857142856</ele><time>2026-04-11T09:21:48.388Z</time></trkpt><trkpt lat="45.5674533" lon="8.6729817"><ele>192.85714285714283</ele><time>2026-04-11T09:21:50.39Z</time></trkpt><trkpt lat="45.5674983" lon="8.67291"><ele>193.14285714285714</ele><time>2026-04-11T09:21:52.39Z</time></trkpt><trkpt lat="45.567555" lon="8.672805"><ele>193.42857142857144</ele><time>2026-04-11T09:21:54.39Z</time></trkpt><trkpt lat="45.5676017" lon="8.6727417"><ele>193.7142857142857</ele><time>2026-04-11T09:21:56.389Z</time></trkpt><trkpt lat="45.5676683" lon="8.6726567"><ele>194.0</ele><time>2026-04-11T09:21:59.388Z</time></trkpt><trkpt lat="45.5677267" lon="8.67258"><ele>194.16666666666669</ele><time>2026-04-11T09:22:02.391Z</time></trkpt><trkpt lat="45.5677867" lon="8.6724967"><ele>194.33333333333334</ele><time>2026-04-11T09:22:05.39Z</time></trkpt><trkpt lat="45.567845" lon="8.67241"><ele>194.5</ele><time>2026-04-11T09:22:08.389Z</time></trkpt><trkpt lat="45.567895" lon="8.6723517"><ele>194.66666666666669</ele><time>2026-04-11T09:22:11.389Z</time></trkpt><trkpt lat="45.5679617" lon="8.6722833"><ele>194.83333333333334</ele><time>2026-04-11T09:22:14.389Z</time></trkpt><trkpt lat="45.5680183" lon="8.672195"><ele>195.0</ele><time>2026-04-11T09:22:17.393Z</time></trkpt><trkpt lat="45.5680617" lon="8.6721183"><ele>194.33333333333334</ele><time>2026-04-11T09:22:19.388Z</time></trkpt><trkpt lat="45.5681067" lon="8.672045"><ele>193.66666666666666</ele><time>2026-04-11T09:22:21.387Z</time></trkpt><trkpt lat="45.5681617" lon="8.671955"><ele>193.0</ele><time>2026-04-11T09:22:23.39Z</time></trkpt><trkpt lat="45.5682017" lon="8.6718667"><ele>192.33333333333331</ele><time>2026-04-11T09:22:25.388Z</time></trkpt><trkpt lat="45.5682317" lon="8.6717867"><ele>191.66666666666666</ele><time>2026-04-11T09:22:27.387Z</time></trkpt><trkpt lat="45.56828" lon="8.6716833"><ele>191.0</ele><time>2026-04-11T09:22:30.393Z</time></trkpt><trkpt lat="45.568335" lon="8.671575"><ele>191.0</ele><time>2026-04-11T09:22:33.387Z</time></trkpt><trkpt lat="45.5683983" lon="8.6714817"><ele>191.0</ele><time>2026-04-11T09:22:36.39Z</time></trkpt><trkpt lat="45.5684467" lon="8.6713833"><ele>191.0</ele><time>2026-04-11T09:22:39.388Z</time></trkpt><trkpt lat="45.56848" lon="8.6713067"><ele>191.0</ele><time>2026-04-11T09:22:41.388Z</time></trkpt><trkpt lat="45.5685333" lon="8.6712117"><ele>191.0</ele><time>2026-04-11T09:22:44.389Z</time></trkpt><trkpt lat="45.568575" lon="8.6711333"><ele>191.0</ele><time>2026-04-11T09:22:46.385Z</time></trkpt><trkpt lat="45.56862" lon="8.671055"><ele>191.5</ele><time>2026-04-11T09:22:48.387Z</time></trkpt><trkpt lat="45.568665" lon="8.6709717"><ele>192.0</ele><time>2026-04-11T09:22:50.388Z</time></trkpt><trkpt lat="45.5687117" lon="8.670875"><ele>192.5</ele><time>2026-04-11T09:22:52.387Z</time></trkpt><trkpt lat="45.5687567" lon="8.6707867"><ele>193.0</ele><time>2026-04-11T09:22:54.389Z</time></trkpt><trkpt lat="45.5688" lon="8.6706983"><ele>193.50000000000003</ele><time>2026-04-11T09:22:56.39Z</time></trkpt><trkpt lat="45.56883" lon="8.670595"><ele>194.0</ele><time>2026-04-11T09:22:58.388Z</time></trkpt><trkpt lat="45.56886" lon="8.6705033"><ele>194.00000000000003</ele><time>2026-04-11T09:23:00.389Z</time></trkpt><trkpt lat="45.5689" lon="8.6704117"><ele>194.0</ele><time>2026-04-11T09:23:02.388Z</time></trkpt><trkpt lat="45.5689317" lon="8.6703083"><ele>194.0</ele><time>2026-04-11T09:23:05.391Z</time></trkpt><trkpt lat="45.5689333" lon="8.6701933"><ele>194.0</ele><time>2026-04-11T09:23:08.391Z</time></trkpt><trkpt lat="45.5689367" lon="8.6700933"><ele>194.00000000000003</ele><time>2026-04-11T09:23:11.384Z</time></trkpt><trkpt lat="45.568935" lon="8.6699767"><ele>194.0</ele><time>2026-04-11T09:23:14.389Z</time></trkpt><trkpt lat="45.5689217" lon="8.66987"><ele>194.0</ele><time>2026-04-11T09:23:17.382Z</time></trkpt><trkpt lat="45.56893" lon="8.669765"><ele>194.0</ele><time>2026-04-11T09:23:19.384Z</time></trkpt><trkpt lat="45.5689317" lon="8.6696683"><ele>194.0</ele><time>2026-04-11T09:23:22.387Z</time></trkpt><trkpt lat="45.56893" lon="8.669575"><ele>194.0</ele><time>2026-04-11T09:23:24.389Z</time></trkpt><trkpt lat="45.568935" lon="8.6694683"><ele>194.0</ele><time>2026-04-11T09:23:26.391Z</time></trkpt><trkpt lat="45.5689333" lon="8.6693717"><ele>194.0</ele><time>2026-04-11T09:23:28.392Z</time></trkpt><trkpt lat="45.568925" lon="8.6692467"><ele>194.0</ele><time>2026-04-11T09:23:31.39Z</time></trkpt><trkpt lat="45.5689233" lon="8.6691517"><ele>193.83333333333334</ele><time>2026-04-11T09:23:33.391Z</time></trkpt><trkpt lat="45.5689133" lon="8.6690483"><ele>193.66666666666669</ele><time>2026-04-11T09:23:35.387Z</time></trkpt><trkpt lat="45.568905" lon="8.6689517"><ele>193.5</ele><time>2026-04-11T09:23:37.388Z</time></trkpt><trkpt lat="45.5688967" lon="8.6688617"><ele>193.33333333333331</ele><time>2026-04-11T09:23:39.383Z</time></trkpt><trkpt lat="45.5688867" lon="8.6687633"><ele>193.16666666666666</ele><time>2026-04-11T09:23:41.39Z</time></trkpt><trkpt lat="45.5688617" lon="8.6686333"><ele>193.0</ele><time>2026-04-11T09:23:44.392Z</time></trkpt><trkpt lat="45.5688367" lon="8.6685083"><ele>192.66666666666666</ele><time>2026-04-11T09:23:47.388Z</time></trkpt><trkpt lat="45.5688267" lon="8.6684167"><ele>192.33333333333331</ele><time>2026-04-11T09:23:49.386Z</time></trkpt><trkpt lat="45.5688167" lon="8.6683233"><ele>192.0</ele><time>2026-04-11T09:23:51.388Z</time></trkpt><trkpt lat="45.5688017" lon="8.6682267"><ele>191.66666666666666</ele><time>2026-04-11T09:23:53.387Z</time></trkpt><trkpt lat="45.5687883" lon="8.66813"><ele>191.33333333333331</ele><time>2026-04-11T09:23:55.38Z</time></trkpt><trkpt lat="45.56877" lon="8.6679983"><ele>191.0</ele><time>2026-04-11T09:23:58.387Z</time></trkpt><trkpt lat="45.5687533" lon="8.6678667"><ele>191.0</ele><time>2026-04-11T09:24:01.386Z</time></trkpt><trkpt lat="45.5687417" lon="8.667765"><ele>191.0</ele><time>2026-04-11T09:24:03.387Z</time></trkpt><trkpt lat="45.5687267" lon="8.6676583"><ele>191.0</ele><time>2026-04-11T09:24:05.396Z</time></trkpt><trkpt lat="45.5687117" lon="8.6675517"><ele>191.0</ele><time>2026-04-11T09:24:07.383Z</time></trkpt><trkpt lat="45.5686933" lon="8.6674417"><ele>191.0</ele><time>2026-04-11T09:24:09.384Z</time></trkpt><trkpt lat="45.5686717" lon="8.66733"><ele>191.0</ele><time>2026-04-11T09:24:11.389Z</time></trkpt><trkpt lat="45.56865" lon="8.6672217"><ele>190.85714285714286</ele><time>2026-04-11T09:24:13.38Z</time></trkpt><trkpt lat="45.5686383" lon="8.667115"><ele>190.7142857142857</ele><time>2026-04-11T09:24:15.388Z</time></trkpt><trkpt lat="45.568625" lon="8.6670067"><ele>190.57142857142856</ele><time>2026-04-11T09:24:17.389Z</time></trkpt><trkpt lat="45.5686183" lon="8.6669067"><ele>190.42857142857144</ele><time>2026-04-11T09:24:19.391Z</time></trkpt><trkpt lat="45.568605" lon="8.6668067"><ele>190.28571428571428</ele><time>2026-04-11T09:24:21.386Z</time></trkpt><trkpt lat="45.56859" lon="8.6667133"><ele>190.14285714285714</ele><time>2026-04-11T09:24:23.389Z</time></trkpt><trkpt lat="45.568575" lon="8.6666167"><ele>190.0</ele><time>2026-04-11T09:24:25.387Z</time></trkpt><trkpt lat="45.56856" lon="8.6665267"><ele>190.0</ele><time>2026-04-11T09:24:27.387Z</time></trkpt><trkpt lat="45.5685367" lon="8.6664383"><ele>190.0</ele><time>2026-04-11T09:24:29.39Z</time></trkpt><trkpt lat="45.5685267" lon="8.666345"><ele>190.0</ele><time>2026-04-11T09:24:31.392Z</time></trkpt><trkpt lat="45.56852" lon="8.6662517"><ele>190.0</ele><time>2026-04-11T09:24:33.393Z</time></trkpt><trkpt lat="45.5685133" lon="8.666135"><ele>190.0</ele><time>2026-04-11T09:24:35.388Z</time></trkpt><trkpt lat="45.56849" lon="8.6660183"><ele>190.0</ele><time>2026-04-11T09:24:37.389Z</time></trkpt><trkpt lat="45.5684767" lon="8.6658967"><ele>189.83333333333334</ele><time>2026-04-11T09:24:39.391Z</time></trkpt><trkpt lat="45.5684733" lon="8.6657683"><ele>189.66666666666669</ele><time>2026-04-11T09:24:41.389Z</time></trkpt><trkpt lat="45.56847" lon="8.6656567"><ele>189.5</ele><time>2026-04-11T09:24:43.388Z</time></trkpt><trkpt lat="45.5684583" lon="8.66554"><ele>189.33333333333334</ele><time>2026-04-11T09:24:45.389Z</time></trkpt><trkpt lat="45.5684483" lon="8.6654017"><ele>189.16666666666666</ele><time>2026-04-11T09:24:47.39Z</time></trkpt><trkpt lat="45.5684367" lon="8.6652633"><ele>189.0</ele><time>2026-04-11T09:24:49.386Z</time></trkpt><trkpt lat="45.5684233" lon="8.6651233"><ele>189.0</ele><time>2026-04-11T09:24:51.387Z</time></trkpt><trkpt lat="45.5684183" lon="8.6649783"><ele>189.0</ele><time>2026-04-11T09:24:53.387Z</time></trkpt><trkpt lat="45.5684" lon="8.66486"><ele>189.0</ele><time>2026-04-11T09:24:55.39Z</time></trkpt><trkpt lat="45.56839" lon="8.6647417"><ele>189.0</ele><time>2026-04-11T09:24:57.385Z</time></trkpt><trkpt lat="45.568385" lon="8.6646233"><ele>189.0</ele><time>2026-04-11T09:24:59.391Z</time></trkpt><trkpt lat="45.5683733" lon="8.6645033"><ele>189.0</ele><time>2026-04-11T09:25:01.385Z</time></trkpt><trkpt lat="45.5683667" lon="8.664375"><ele>189.2</ele><time>2026-04-11T09:25:03.387Z</time></trkpt><trkpt lat="45.5683567" lon="8.664255"><ele>189.39999999999998</ele><time>2026-04-11T09:25:05.386Z</time></trkpt><trkpt lat="45.5683467" lon="8.6641433"><ele>189.6</ele><time>2026-04-11T09:25:07.387Z</time></trkpt><trkpt lat="45.5683333" lon="8.6640117"><ele>189.8</ele><time>2026-04-11T09:25:09.386Z</time></trkpt><trkpt lat="45.5683217" lon="8.6638633"><ele>190.0</ele><time>2026-04-11T09:25:11.387Z</time></trkpt><trkpt lat="45.56831" lon="8.66372"><ele>189.8</ele><time>2026-04-11T09:25:13.385Z</time></trkpt><trkpt lat="45.56829" lon="8.6635917"><ele>189.6</ele><time>2026-04-11T09:25:15.385Z</time></trkpt><trkpt lat="45.568275" lon="8.6634617"><ele>189.39999999999998</ele><time>2026-04-11T09:25:17.391Z</time></trkpt><trkpt lat="45.5682633" lon="8.6633317"><ele>189.2</ele><time>2026-04-11T09:25:19.386Z</time></trkpt><trkpt lat="45.56826" lon="8.663195"><ele>189.0</ele><time>2026-04-11T09:25:21.387Z</time></trkpt><trkpt lat="45.5682533" lon="8.6630567"><ele>189.0</ele><time>2026-04-11T09:25:23.39Z</time></trkpt><trkpt lat="45.56824" lon="8.6629217"><ele>189.0</ele><time>2026-04-11T09:25:25.391Z</time></trkpt><trkpt lat="45.5682267" lon="8.6627883"><ele>189.0</ele><time>2026-04-11T09:25:27.387Z</time></trkpt><trkpt lat="45.5682133" lon="8.662655"><ele>189.0</ele><time>2026-04-11T09:25:29.391Z</time></trkpt><trkpt lat="45.5681983" lon="8.6625183"><ele>189.0</ele><time>2026-04-11T09:25:31.385Z</time></trkpt><trkpt lat="45.5681883" lon="8.6623917"><ele>189.0</ele><time>2026-04-11T09:25:33.389Z</time></trkpt><trkpt lat="45.5681767" lon="8.662265"><ele>189.0</ele><time>2026-04-11T09:25:35.386Z</time></trkpt><trkpt lat="45.5681683" lon="8.6621333"><ele>189.0</ele><time>2026-04-11T09:25:37.388Z</time></trkpt><trkpt lat="45.568165" lon="8.6619983"><ele>189.0</ele><time>2026-04-11T09:25:39.39Z</time></trkpt><trkpt lat="45.56816" lon="8.6618683"><ele>189.0</ele><time>2026-04-11T09:25:41.387Z</time></trkpt><trkpt lat="45.568165" lon="8.6617283"><ele>189.0</ele><time>2026-04-11T09:25:43.384Z</time></trkpt><trkpt lat="45.5681717" lon="8.6615867"><ele>189.0</ele><time>2026-04-11T09:25:45.386Z</time></trkpt><trkpt lat="45.568185" lon="8.66146"><ele>189.0</ele><time>2026-04-11T09:25:47.389Z</time></trkpt><trkpt lat="45.5681967" lon="8.6613383"><ele>189.0</ele><time>2026-04-11T09:25:49.385Z</time></trkpt><trkpt lat="45.5682133" lon="8.6612267"><ele>189.0</ele><time>2026-04-11T09:25:51.384Z</time></trkpt><trkpt lat="45.5682317" lon="8.66111"><ele>189.0</ele><time>2026-04-11T09:25:53.389Z</time></trkpt><trkpt lat="45.5682533" lon="8.6609767"><ele>188.79999999999998</ele><time>2026-04-11T09:25:55.386Z</time></trkpt><trkpt lat="45.5682717" lon="8.66084"><ele>188.6</ele><time>2026-04-11T09:25:57.386Z</time></trkpt><trkpt lat="45.568295" lon="8.66071"><ele>188.4</ele><time>2026-04-11T09:25:59.385Z</time></trkpt><trkpt lat="45.568325" lon="8.6605817"><ele>188.2</ele><time>2026-04-11T09:26:01.385Z</time></trkpt><trkpt lat="45.56836" lon="8.6604467"><ele>188.0</ele><time>2026-04-11T09:26:03.385Z</time></trkpt><trkpt lat="45.5683867" lon="8.6603117"><ele>188.2</ele><time>2026-04-11T09:26:05.386Z</time></trkpt><trkpt lat="45.5684117" lon="8.6601967"><ele>188.4</ele><time>2026-04-11T09:26:07.389Z</time></trkpt><trkpt lat="45.5684383" lon="8.6600817"><ele>188.6</ele><time>2026-04-11T09:26:09.386Z</time></trkpt><trkpt lat="45.5684633" lon="8.6599533"><ele>188.79999999999998</ele><time>2026-04-11T09:26:11.386Z</time></trkpt><trkpt lat="45.5684867" lon="8.659825"><ele>189.0</ele><time>2026-04-11T09:26:13.387Z</time></trkpt><trkpt lat="45.5685083" lon="8.6596917"><ele>189.0</ele><time>2026-04-11T09:26:15.386Z</time></trkpt><trkpt lat="45.568535" lon="8.65957"><ele>189.0</ele><time>2026-04-11T09:26:17.388Z</time></trkpt><trkpt lat="45.5685617" lon="8.659445"><ele>189.0</ele><time>2026-04-11T09:26:19.386Z</time></trkpt><trkpt lat="45.5685867" lon="8.65932"><ele>189.0</ele><time>2026-04-11T09:26:21.384Z</time></trkpt><trkpt lat="45.56861" lon="8.659205"><ele>189.0</ele><time>2026-04-11T09:26:23.386Z</time></trkpt><trkpt lat="45.56864" lon="8.6590833"><ele>189.0</ele><time>2026-04-11T09:26:25.388Z</time></trkpt><trkpt lat="45.56867" lon="8.6589583"><ele>189.0</ele><time>2026-04-11T09:26:27.387Z</time></trkpt><trkpt lat="45.5686933" lon="8.65884"><ele>189.0</ele><time>2026-04-11T09:26:29.39Z</time></trkpt><trkpt lat="45.56872" lon="8.6587233"><ele>189.0</ele><time>2026-04-11T09:26:31.387Z</time></trkpt><trkpt lat="45.5687483" lon="8.6585983"><ele>189.0</ele><time>2026-04-11T09:26:33.391Z</time></trkpt><trkpt lat="45.5687717" lon="8.658465"><ele>189.0</ele><time>2026-04-11T09:26:35.388Z</time></trkpt><trkpt lat="45.5687933" lon="8.6583467"><ele>189.0</ele><time>2026-04-11T09:26:37.386Z</time></trkpt><trkpt lat="45.5688167" lon="8.65824"><ele>189.16666666666666</ele><time>2026-04-11T09:26:39.386Z</time></trkpt><trkpt lat="45.5688333" lon="8.6581283"><ele>189.33333333333334</ele><time>2026-04-11T09:26:41.385Z</time></trkpt><trkpt lat="45.5688533" lon="8.658015"><ele>189.5</ele><time>2026-04-11T09:26:43.384Z</time></trkpt><trkpt lat="45.5688717" lon="8.6579117"><ele>189.66666666666669</ele><time>2026-04-11T09:26:45.388Z</time></trkpt><trkpt lat="45.5688883" lon="8.6577667"><ele>189.83333333333334</ele><time>2026-04-11T09:26:48.39Z</time></trkpt><trkpt lat="45.5689017" lon="8.65763"><ele>190.0</ele><time>2026-04-11T09:26:50.388Z</time></trkpt><trkpt lat="45.5689133" lon="8.6574933"><ele>190.4</ele><time>2026-04-11T09:26:52.389Z</time></trkpt><trkpt lat="45.5689183" lon="8.657365"><ele>190.8</ele><time>2026-04-11T09:26:54.391Z</time></trkpt><trkpt lat="45.568915" lon="8.657235"><ele>191.2</ele><time>2026-04-11T09:26:56.387Z</time></trkpt><trkpt lat="45.5689067" lon="8.6570767"><ele>191.6</ele><time>2026-04-11T09:26:58.385Z</time></trkpt><trkpt lat="45.5688967" lon="8.6569367"><ele>192.0</ele><time>2026-04-11T09:27:00.385Z</time></trkpt><trkpt lat="45.5688817" lon="8.6568067"><ele>192.0</ele><time>2026-04-11T09:27:02.39Z</time></trkpt><trkpt lat="45.568875" lon="8.6566767"><ele>192.0</ele><time>2026-04-11T09:27:04.386Z</time></trkpt><trkpt lat="45.5688717" lon="8.656565"><ele>192.0</ele><time>2026-04-11T09:27:06.386Z</time></trkpt><trkpt lat="45.5688783" lon="8.6564433"><ele>192.0</ele><time>2026-04-11T09:27:08.389Z</time></trkpt><trkpt lat="45.5688917" lon="8.6563067"><ele>192.0</ele><time>2026-04-11T09:27:10.387Z</time></trkpt><trkpt lat="45.5689033" lon="8.656165"><ele>192.2</ele><time>2026-04-11T09:27:12.388Z</time></trkpt><trkpt lat="45.5689133" lon="8.65602"><ele>192.39999999999998</ele><time>2026-04-11T09:27:14.388Z</time></trkpt><trkpt lat="45.5689233" lon="8.6558767"><ele>192.60000000000002</ele><time>2026-04-11T09:27:16.387Z</time></trkpt><trkpt lat="45.5689333" lon="8.6557433"><ele>192.8</ele><time>2026-04-11T09:27:18.389Z</time></trkpt><trkpt lat="45.56894" lon="8.6556167"><ele>193.0</ele><time>2026-04-11T09:27:20.388Z</time></trkpt><trkpt lat="45.5689483" lon="8.6554917"><ele>192.99999999999997</ele><time>2026-04-11T09:27:22.385Z</time></trkpt><trkpt lat="45.5689517" lon="8.6553667"><ele>193.0</ele><time>2026-04-11T09:27:24.387Z</time></trkpt><trkpt lat="45.568955" lon="8.6552417"><ele>193.0</ele><time>2026-04-11T09:27:26.387Z</time></trkpt><trkpt lat="45.5689633" lon="8.6551217"><ele>193.0</ele><time>2026-04-11T09:27:28.386Z</time></trkpt><trkpt lat="45.56897" lon="8.6550033"><ele>192.99999999999997</ele><time>2026-04-11T09:27:30.39Z</time></trkpt><trkpt lat="45.5689767" lon="8.6548917"><ele>193.0</ele><time>2026-04-11T09:27:32.389Z</time></trkpt><trkpt lat="45.5689817" lon="8.6547767"><ele>192.8</ele><time>2026-04-11T09:27:34.387Z</time></trkpt><trkpt lat="45.568985" lon="8.6546467"><ele>192.60000000000002</ele><time>2026-04-11T09:27:36.389Z</time></trkpt><trkpt lat="45.5689817" lon="8.6545283"><ele>192.39999999999998</ele><time>2026-04-11T09:27:38.39Z</time></trkpt><trkpt lat="45.5689967" lon="8.6543933"><ele>192.2</ele><time>2026-04-11T09:27:40.388Z</time></trkpt><trkpt lat="45.5690217" lon="8.6542617"><ele>192.0</ele><time>2026-04-11T09:27:42.387Z</time></trkpt><trkpt lat="45.5690483" lon="8.6541383"><ele>192.0</ele><time>2026-04-11T09:27:44.389Z</time></trkpt><trkpt lat="45.5690767" lon="8.6540067"><ele>192.0</ele><time>2026-04-11T09:27:46.386Z</time></trkpt><trkpt lat="45.5691017" lon="8.6538717"><ele>192.0</ele><time>2026-04-11T09:27:48.389Z</time></trkpt><trkpt lat="45.5691333" lon="8.65374"><ele>192.0</ele><time>2026-04-11T09:27:50.389Z</time></trkpt><trkpt lat="45.569155" lon="8.6536133"><ele>192.0</ele><time>2026-04-11T09:27:52.383Z</time></trkpt><trkpt lat="45.5691733" lon="8.6534983"><ele>192.0</ele><time>2026-04-11T09:27:54.383Z</time></trkpt><trkpt lat="45.5691817" lon="8.6533783"><ele>192.0</ele><time>2026-04-11T09:27:56.384Z</time></trkpt><trkpt lat="45.5692017" lon="8.6532417"><ele>192.0</ele><time>2026-04-11T09:27:58.385Z</time></trkpt><trkpt lat="45.569215" lon="8.65311"><ele>192.0</ele><time>2026-04-11T09:28:00.389Z</time></trkpt><trkpt lat="45.569235" lon="8.6529733"><ele>192.0</ele><time>2026-04-11T09:28:02.387Z</time></trkpt><trkpt lat="45.5692417" lon="8.6528467"><ele>192.16666666666666</ele><time>2026-04-11T09:28:04.391Z</time></trkpt><trkpt lat="45.569245" lon="8.65272"><ele>192.33333333333331</ele><time>2026-04-11T09:28:06.393Z</time></trkpt><trkpt lat="45.5692467" lon="8.6525917"><ele>192.5</ele><time>2026-04-11T09:28:08.389Z</time></trkpt><trkpt lat="45.5692483" lon="8.6524683"><ele>192.66666666666666</ele><time>2026-04-11T09:28:10.385Z</time></trkpt><trkpt lat="45.5692583" lon="8.6523517"><ele>192.83333333333331</ele><time>2026-04-11T09:28:12.38Z</time></trkpt><trkpt lat="45.56927" lon="8.6522383"><ele>193.0</ele><time>2026-04-11T09:28:14.386Z</time></trkpt><trkpt lat="45.5692767" lon="8.6521183"><ele>192.99999999999997</ele><time>2026-04-11T09:28:16.392Z</time></trkpt><trkpt lat="45.5692683" lon="8.6519867"><ele>193.0</ele><time>2026-04-11T09:28:18.392Z</time></trkpt><trkpt lat="45.5692717" lon="8.65186"><ele>193.0</ele><time>2026-04-11T09:28:20.388Z</time></trkpt><trkpt lat="45.569285" lon="8.6517417"><ele>193.0</ele><time>2026-04-11T09:28:22.388Z</time></trkpt><trkpt lat="45.5692917" lon="8.651615"><ele>192.99999999999997</ele><time>2026-04-11T09:28:24.387Z</time></trkpt><trkpt lat="45.5692933" lon="8.651505"><ele>193.0</ele><time>2026-04-11T09:28:26.388Z</time></trkpt><trkpt lat="45.5692983" lon="8.6513867"><ele>192.83333333333331</ele><time>2026-04-11T09:28:28.389Z</time></trkpt><trkpt lat="45.5693067" lon="8.651265"><ele>192.66666666666666</ele><time>2026-04-11T09:28:30.39Z</time></trkpt><trkpt lat="45.5693667" lon="8.6512"><ele>192.5</ele><time>2026-04-11T09:28:34.388Z</time></trkpt><trkpt lat="45.5694617" lon="8.6511967"><ele>192.33333333333331</ele><time>2026-04-11T09:28:36.389Z</time></trkpt><trkpt lat="45.5695567" lon="8.6512083"><ele>192.16666666666666</ele><time>2026-04-11T09:28:38.389Z</time></trkpt><trkpt lat="45.56965" lon="8.6512033"><ele>192.0</ele><time>2026-04-11T09:28:40.388Z</time></trkpt><trkpt lat="45.56974" lon="8.65121"><ele>192.0</ele><time>2026-04-11T09:28:42.388Z</time></trkpt><trkpt lat="45.5698267" lon="8.65122"><ele>192.0</ele><time>2026-04-11T09:28:44.392Z</time></trkpt><trkpt lat="45.5699283" lon="8.6512317"><ele>192.0</ele><time>2026-04-11T09:28:46.389Z</time></trkpt><trkpt lat="45.5700117" lon="8.65126"><ele>192.0</ele><time>2026-04-11T09:28:48.389Z</time></trkpt><trkpt lat="45.5700983" lon="8.6512717"><ele>192.0</ele><time>2026-04-11T09:28:50.386Z</time></trkpt><trkpt lat="45.5701867" lon="8.6512667"><ele>192.0</ele><time>2026-04-11T09:28:52.388Z</time></trkpt><trkpt lat="45.57027" lon="8.65128"><ele>192.0</ele><time>2026-04-11T09:28:54.39Z</time></trkpt><trkpt lat="45.5703567" lon="8.651285"><ele>192.0</ele><time>2026-04-11T09:28:56.386Z</time></trkpt><trkpt lat="45.5704333" lon="8.6512883"><ele>192.0</ele><time>2026-04-11T09:28:58.389Z</time></trkpt><trkpt lat="45.5705083" lon="8.6512917"><ele>192.0</ele><time>2026-04-11T09:29:00.388Z</time></trkpt><trkpt lat="45.570585" lon="8.6512917"><ele>192.0</ele><time>2026-04-11T09:29:02.384Z</time></trkpt><trkpt lat="45.5706667" lon="8.6512883"><ele>192.33333333333334</ele><time>2026-04-11T09:29:04.389Z</time></trkpt><trkpt lat="45.5707367" lon="8.6512833"><ele>192.66666666666669</ele><time>2026-04-11T09:29:06.393Z</time></trkpt><trkpt lat="45.570815" lon="8.6512717"><ele>193.0</ele><time>2026-04-11T09:29:08.39Z</time></trkpt><trkpt lat="45.5708917" lon="8.651265"><ele>193.33333333333334</ele><time>2026-04-11T09:29:10.381Z</time></trkpt><trkpt lat="45.57098" lon="8.651275"><ele>193.66666666666669</ele><time>2026-04-11T09:29:12.389Z</time></trkpt><trkpt lat="45.571065" lon="8.6512717"><ele>194.0</ele><time>2026-04-11T09:29:14.39Z</time></trkpt><trkpt lat="45.5711333" lon="8.65121"><ele>193.83333333333334</ele><time>2026-04-11T09:29:16.384Z</time></trkpt><trkpt lat="45.5711683" lon="8.6511083"><ele>193.66666666666669</ele><time>2026-04-11T09:29:18.389Z</time></trkpt><trkpt lat="45.571165" lon="8.6509917"><ele>193.5</ele><time>2026-04-11T09:29:20.389Z</time></trkpt><trkpt lat="45.5711633" lon="8.65087"><ele>193.33333333333331</ele><time>2026-04-11T09:29:22.387Z</time></trkpt><trkpt lat="45.5711667" lon="8.6507467"><ele>193.16666666666666</ele><time>2026-04-11T09:29:24.39Z</time></trkpt><trkpt lat="45.5711733" lon="8.6506317"><ele>193.0</ele><time>2026-04-11T09:29:26.392Z</time></trkpt><trkpt lat="45.571175" lon="8.6505117"><ele>192.99999999999997</ele><time>2026-04-11T09:29:28.388Z</time></trkpt><trkpt lat="45.5711733" lon="8.6503883"><ele>193.0</ele><time>2026-04-11T09:29:30.39Z</time></trkpt><trkpt lat="45.5711717" lon="8.6502717"><ele>193.0</ele><time>2026-04-11T09:29:32.387Z</time></trkpt><trkpt lat="45.571165" lon="8.650155"><ele>193.0</ele><time>2026-04-11T09:29:34.388Z</time></trkpt><trkpt lat="45.57116" lon="8.650035"><ele>192.99999999999997</ele><time>2026-04-11T09:29:36.389Z</time></trkpt><trkpt lat="45.5711517" lon="8.64991"><ele>193.0</ele><time>2026-04-11T09:29:38.389Z</time></trkpt><trkpt lat="45.57115" lon="8.6497867"><ele>192.99999999999997</ele><time>2026-04-11T09:29:40.387Z</time></trkpt><trkpt lat="45.5711367" lon="8.6496633"><ele>193.0</ele><time>2026-04-11T09:29:42.388Z</time></trkpt><trkpt lat="45.5711267" lon="8.6495383"><ele>193.0</ele><time>2026-04-11T09:29:44.389Z</time></trkpt><trkpt lat="45.5711167" lon="8.6494217"><ele>193.0</ele><time>2026-04-11T09:29:46.389Z</time></trkpt><trkpt lat="45.5711083" lon="8.6493083"><ele>192.99999999999997</ele><time>2026-04-11T09:29:48.381Z</time></trkpt><trkpt lat="45.5711033" lon="8.6491833"><ele>193.0</ele><time>2026-04-11T09:29:50.393Z</time></trkpt><trkpt lat="45.5710933" lon="8.649055"><ele>193.16666666666666</ele><time>2026-04-11T09:29:52.387Z</time></trkpt><trkpt lat="45.571085" lon="8.648935"><ele>193.33333333333331</ele><time>2026-04-11T09:29:54.388Z</time></trkpt><trkpt lat="45.571075" lon="8.6488233"><ele>193.5</ele><time>2026-04-11T09:29:56.391Z</time></trkpt><trkpt lat="45.571065" lon="8.648715"><ele>193.66666666666669</ele><time>2026-04-11T09:29:58.388Z</time></trkpt><trkpt lat="45.5710533" lon="8.64862"><ele>193.83333333333334</ele><time>2026-04-11T09:30:00.387Z</time></trkpt><trkpt lat="45.5710417" lon="8.6485283"><ele>194.0</ele><time>2026-04-11T09:30:03.385Z</time></trkpt><trkpt lat="45.5710383" lon="8.648415"><ele>194.00000000000003</ele><time>2026-04-11T09:30:06.388Z</time></trkpt><trkpt lat="45.5710267" lon="8.6482983"><ele>194.0</ele><time>2026-04-11T09:30:08.384Z</time></trkpt><trkpt lat="45.5710117" lon="8.6481717"><ele>194.0</ele><time>2026-04-11T09:30:10.385Z</time></trkpt><trkpt lat="45.571005" lon="8.6480517"><ele>194.0</ele><time>2026-04-11T09:30:12.379Z</time></trkpt><trkpt lat="45.57099" lon="8.6479383"><ele>194.00000000000003</ele><time>2026-04-11T09:30:14.383Z</time></trkpt><trkpt lat="45.5709783" lon="8.64783"><ele>194.0</ele><time>2026-04-11T09:30:16.386Z</time></trkpt><trkpt lat="45.5709767" lon="8.64773"><ele>194.0</ele><time>2026-04-11T09:30:18.392Z</time></trkpt><trkpt lat="45.570965" lon="8.6476367"><ele>194.0</ele><time>2026-04-11T09:30:20.386Z</time></trkpt><trkpt lat="45.5709517" lon="8.6475133"><ele>194.0</ele><time>2026-04-11T09:30:24.385Z</time></trkpt><trkpt lat="45.5709433" lon="8.6474217"><ele>194.0</ele><time>2026-04-11T09:30:27.384Z</time></trkpt><trkpt lat="45.5709333" lon="8.64732"><ele>194.0</ele><time>2026-04-11T09:30:31.387Z</time></trkpt><trkpt lat="45.5709283" lon="8.6472267"><ele>194.0</ele><time>2026-04-11T09:30:40.384Z</time></trkpt></trkseg></trk></gpx>